SU1310 / VP-BMB 7700 Squawk Report (10th of April, 2020)

Aircraft B738 Reg No. VP-BMB Age 3 years old
Model 737 Jet engines 2 First flight 21-01-17
Registered 04-02-17 Rollout N/A Delivered 04-02-17
Construction No. 41231 Line No. 6259 Series 800
ADSHEX 424298 Airline name Aeroflot Russian Airlines Owner N/A
Airfield based Moscow-Sheremetyevo~Moscow~RA First tracked N/A

Flight history for VP-BMB

Time Lat Lon Altitude Heading Speed Vertical Rate
2020-04-10 11:53:15 GMT 44.748943 42.990841 9,450 190 290 -256
2020-04-10 11:53:12 GMT 44.751663 42.989960 9,500 167 308 -1344
2020-04-10 11:53:03 GMT 44.765579 42.985512 9,725 167 311 -1408
2020-04-10 11:52:49 GMT 44.783440 42.979652 10,025 166 315 -1408
2020-04-10 11:52:41 GMT 44.794846 42.975903 10,225 166 319 -1472
2020-04-10 11:52:32 GMT 44.809414 42.971214 10,500 167 320 -1792
2020-04-10 11:52:20 GMT 44.825336 42.966122 10,850 167 321 -1984
2020-04-10 11:52:11 GMT 44.839954 42.961365 11,175 166 322 -1792
2020-04-10 11:51:59 GMT 44.855850 42.956215 11,525 166 323 -1856
2020-04-10 11:51:49 GMT 44.870041 42.951637 11,775 167 326 -1536
2020-04-10 11:51:40 GMT 44.885651 42.946537 12,075 166 328 -1664
2020-04-10 11:51:29 GMT 44.901855 42.941242 12,375 166 331 -1728
2020-04-10 11:51:18 GMT 44.916576 42.936378 12,650 166 333 -1536
2020-04-10 11:51:07 GMT 44.932663 42.931171 12,975 167 335 -1984
2020-04-10 11:50:58 GMT 44.949005 42.925873 13,325 166 336 -1984
2020-04-10 11:50:46 GMT 44.964661 42.920773 13,675 167 337 -2048
2020-04-10 11:50:37 GMT 44.979935 42.915813 14,000 167 338 -1984
2020-04-10 11:50:25 GMT 44.996555 42.910454 14,350 167 339 -2048
2020-04-10 11:50:15 GMT 45.012268 42.905338 14,725 167 339 -1984
2020-04-10 11:50:06 GMT 45.028336 42.900108 15,050 165 341 -1920
2020-04-10 11:49:55 GMT 45.043396 42.894287 15,350 163 342 -1792
2020-04-10 11:49:45 GMT 45.059738 42.887615 15,700 163 344 -1920
2020-04-10 11:49:34 GMT 45.075600 42.881245 16,000 163 346 -1792
2020-04-10 11:49:23 GMT 45.091755 42.874615 16,325 163 347 -1856
2020-04-10 11:49:14 GMT 45.108189 42.867916 16,650 163 349 -1856
2020-04-10 11:49:03 GMT 45.122944 42.861820 16,950 163 351 -1856
2020-04-10 11:48:53 GMT 45.140774 42.854450 17,300 163 354 -1728
2020-04-10 11:48:42 GMT 45.157021 42.847687 17,625 163 356 -2048
2020-04-10 11:48:31 GMT 45.175037 42.840248 18,000 163 357 -2048
2020-04-10 11:48:21 GMT 45.190842 42.833797 18,350 163 358 -2048
2020-04-10 11:48:10 GMT 45.207157 42.827118 18,700 163 358 -2240
2020-04-10 11:47:59 GMT 45.224476 42.819950 19,125 163 358 -2048
2020-04-10 11:47:50 GMT 45.240326 42.813393 19,450 163 359 -2048
2020-04-10 11:47:38 GMT 45.257526 42.806286 19,800 163 361 -1856
2020-04-10 11:47:29 GMT 45.273148 42.799858 20,125 163 362 -1984
2020-04-10 11:47:18 GMT 45.290764 42.792618 20,475 163 363 -2048
2020-04-10 11:47:07 GMT 45.307297 42.785862 20,850 163 363 -1920
2020-04-10 11:46:58 GMT 45.324284 42.778820 21,000 163 372 -256
2020-04-10 11:46:47 GMT 45.341087 42.771851 21,100 163 380 -1344
2020-04-10 11:46:37 GMT 45.359711 42.764214 21,375 163 384 -1536
2020-04-10 11:46:26 GMT 45.376141 42.757381 21,650 163 387 -2048
2020-04-10 11:46:15 GMT 45.394363 42.749828 22,025 163 389 -2112
2020-04-10 11:46:06 GMT 45.412537 42.742310 22,400 163 392 -2112
2020-04-10 11:45:55 GMT 45.431030 42.734657 22,775 163 394 -2112
2020-04-10 11:45:45 GMT 45.448563 42.727333 23,125 164 395 -2112
2020-04-10 11:45:34 GMT 45.467285 42.720665 23,500 168 398 -2112
2020-04-10 11:45:23 GMT 45.487701 42.714779 23,900 168 400 -2176
2020-04-10 11:45:14 GMT 45.505978 42.709484 24,250 168 403 -2176
2020-04-10 11:45:02 GMT 45.524918 42.704121 24,650 168 404 -2176
2020-04-10 11:44:51 GMT 45.545776 42.698097 25,050 168 407 -2176
2020-04-10 11:44:41 GMT 45.564377 42.692738 25,425 168 409 -2240
2020-04-10 11:44:32 GMT 45.583763 42.687172 25,800 168 411 -2240
2020-04-10 11:44:23 GMT 45.597778 42.683121 26,075 168 413 -2176
2020-04-10 11:44:20 GMT 45.602619 42.681747 26,175 168 413 -2176
2020-04-10 11:44:12 GMT 45.616974 42.677597 26,475 168 415 -2240
2020-04-10 11:44:09 GMT 45.626266 42.674950 26,550 168 415 -2240
2020-04-10 11:44:03 GMT 45.638557 42.671448 26,900 168 417 -2240
2020-04-10 11:44:00 GMT 45.640549 42.670830 26,925 168 417 -2240
2020-04-10 11:43:49 GMT 45.660900 42.664993 27,275 168 419 -2304
2020-04-10 11:43:40 GMT 45.680874 42.659225 27,725 168 421 -2240
2020-04-10 11:43:29 GMT 45.700752 42.653458 28,075 168 424 -2240
2020-04-10 11:43:19 GMT 45.720394 42.647758 28,525 168 426 -2304
2020-04-10 11:43:08 GMT 45.740433 42.641960 28,875 168 428 -2304
2020-04-10 11:42:57 GMT 45.761967 42.635742 29,350 168 431 -2304
2020-04-10 11:42:48 GMT 45.782497 42.629837 29,750 168 433 -2368
2020-04-10 11:42:39 GMT 45.798157 42.625412 30,050 168 435 -2368
2020-04-10 11:42:36 GMT 45.802189 42.624275 30,150 168 435 -2368
2020-04-10 11:42:29 GMT 45.817932 42.619785 30,475 168 438 -2432
2020-04-10 11:42:26 GMT 45.821789 42.618713 30,525 168 438 -2432
2020-04-10 11:42:16 GMT 45.843899 42.612534 30,975 168 441 -2368
2020-04-10 11:42:08 GMT 45.858994 42.608261 31,300 168 443 -2496
2020-04-10 11:42:05 GMT 45.864147 42.606834 31,375 168 443 -2560
2020-04-10 11:41:58 GMT 45.878998 42.602646 31,750 168 442 -3264
2020-04-10 11:41:55 GMT 45.883942 42.601231 31,750 168 442 -3264
2020-04-10 11:41:47 GMT 45.900146 42.596676 32,425 168 438 -3584
2020-04-10 11:41:44 GMT 45.905502 42.595135 32,525 168 437 -3200
2020-04-10 11:41:38 GMT 45.919266 42.591110 32,825 168 436 -1856
2020-04-10 11:41:35 GMT 45.925049 42.589371 32,925 168 436 -1088
2020-04-10 11:41:27 GMT 45.939835 42.584885 33,000 167 436 -64
2020-04-10 11:41:24 GMT 45.947525 42.582474 33,000 167 436 0
2020-04-10 11:41:17 GMT 45.959629 42.578613 33,000 167 436 0
2020-04-10 11:41:13 GMT 45.967026 42.576309 33,000 167 436 0
2020-04-10 11:41:07 GMT 45.979691 42.572227 33,000 167 436 0
2020-04-10 11:41:03 GMT 45.987000 42.569893 33,000 167 436 0
2020-04-10 11:40:57 GMT 45.999664 42.565857 33,000 167 436 0
2020-04-10 11:40:54 GMT 46.007439 42.563438 33,000 167 436 0
2020-04-10 11:40:46 GMT 46.020004 42.559387 33,000 167 436 0
2020-04-10 11:40:43 GMT 46.026897 42.557190 33,000 167 435 0
2020-04-10 11:40:37 GMT 46.039581 42.553196 33,000 167 435 0
2020-04-10 11:40:32 GMT 46.048309 42.550392 33,000 167 435 0
2020-04-10 11:40:26 GMT 46.060226 42.546566 33,000 167 435 0
2020-04-10 11:40:23 GMT 46.068188 42.544006 33,000 167 435 0
2020-04-10 11:40:16 GMT 46.080570 42.540092 33,000 167 435 0
2020-04-10 11:40:11 GMT 46.089661 42.537121 33,000 167 435 0
2020-04-10 11:40:06 GMT 46.100281 42.533772 33,000 167 435 0
2020-04-10 11:40:01 GMT 46.110489 42.530556 33,000 167 435 0
2020-04-10 11:39:55 GMT 46.120419 42.527390 33,000 167 435 0
2020-04-10 11:39:50 GMT 46.130196 42.524231 33,000 167 435 0
2020-04-10 11:39:46 GMT 46.139832 42.521141 33,000 167 435 0
2020-04-10 11:39:40 GMT 46.150909 42.517628 33,000 167 435 0
2020-04-10 11:39:35 GMT 46.160034 42.514687 33,000 167 435 0
2020-04-10 11:39:30 GMT 46.170547 42.511395 33,000 167 435 0
2020-04-10 11:39:25 GMT 46.180473 42.508232 33,000 167 435 0
2020-04-10 11:39:22 GMT 46.187500 42.505966 33,000 167 435 0
2020-04-10 11:39:19 GMT 46.192108 42.504498 33,000 167 435 0
2020-04-10 11:39:14 GMT 46.200760 42.501747 33,000 167 435 0
2020-04-10 11:39:10 GMT 46.211849 42.498207 33,000 167 435 0
2020-04-10 11:39:04 GMT 46.221066 42.495323 33,000 167 435 0
2020-04-10 11:39:01 GMT 46.228142 42.493057 33,000 167 435 0
2020-04-10 11:38:58 GMT 46.232941 42.491501 33,000 167 435 0
2020-04-10 11:38:55 GMT 46.241180 42.488888 33,000 167 435 0
2020-04-10 11:38:49 GMT 46.251698 42.485573 33,000 167 435 0
2020-04-10 11:38:42 GMT 46.263748 42.481785 33,000 167 435 0
2020-04-10 11:38:37 GMT 46.273956 42.478504 33,000 167 435 0
2020-04-10 11:38:34 GMT 46.279770 42.476646 33,000 167 435 0
2020-04-10 11:38:30 GMT 46.289776 42.473488 33,000 167 435 0
2020-04-10 11:38:18 GMT 46.315102 42.465454 33,000 167 435 0
2020-04-10 11:38:13 GMT 46.320965 42.463531 33,000 167 435 0
2020-04-10 11:38:07 GMT 46.334427 42.459278 33,000 167 435 64
2020-04-10 11:38:04 GMT 46.340611 42.457352 33,000 167 435 0
2020-04-10 11:37:56 GMT 46.355507 42.452614 33,000 167 435 0
2020-04-10 11:37:53 GMT 46.360519 42.451038 33,000 167 435 0
2020-04-10 11:37:47 GMT 46.372330 42.447285 33,000 167 435 0
2020-04-10 11:37:43 GMT 46.380089 42.444786 33,000 167 435 0
2020-04-10 11:37:35 GMT 46.395905 42.439716 33,000 167 435 0
2020-04-10 11:37:32 GMT 46.400894 42.438126 33,000 167 435 0
2020-04-10 11:37:26 GMT 46.414948 42.433620 33,000 167 435 0
2020-04-10 11:37:21 GMT 46.425430 42.430229 33,000 167 435 0
2020-04-10 11:37:12 GMT 46.440445 42.425449 33,000 167 435 0
2020-04-10 11:37:09 GMT 46.445938 42.423637 33,000 167 435 0
2020-04-10 11:37:03 GMT 46.459927 42.419174 33,000 167 435 0
2020-04-10 11:36:59 GMT 46.467419 42.416771 33,000 167 435 0
2020-04-10 11:36:53 GMT 46.477985 42.413338 33,000 167 435 0
2020-04-10 11:36:48 GMT 46.486908 42.410442 33,000 167 435 0
2020-04-10 11:36:41 GMT 46.501419 42.405754 33,000 167 434 0
2020-04-10 11:36:38 GMT 46.506432 42.404137 33,000 167 434 0
2020-04-10 11:36:32 GMT 46.519978 42.399742 33,000 167 434 0
2020-04-10 11:36:29 GMT 46.526733 42.397579 33,000 167 434 0
2020-04-10 11:36:22 GMT 46.539459 42.393494 33,000 167 434 0
2020-04-10 11:36:18 GMT 46.547287 42.390949 33,000 167 434 0
2020-04-10 11:36:12 GMT 46.560150 42.386765 33,000 167 434 0
2020-04-10 11:36:08 GMT 46.566879 42.384583 33,000 167 434 0
2020-04-10 11:36:01 GMT 46.579517 42.380447 33,000 167 434 0
2020-04-10 11:35:58 GMT 46.588257 42.377617 33,000 167 434 0
2020-04-10 11:35:51 GMT 46.599720 42.373924 33,000 167 434 0
2020-04-10 11:35:47 GMT 46.608994 42.370918 33,000 167 434 0
2020-04-10 11:35:42 GMT 46.619202 42.367569 33,000 167 434 0
2020-04-10 11:35:35 GMT 46.630966 42.363750 33,000 167 434 0
2020-04-10 11:35:30 GMT 46.640350 42.360737 33,000 167 434 0
2020-04-10 11:35:25 GMT 46.649441 42.357788 33,000 167 434 0
2020-04-10 11:35:21 GMT 46.660538 42.354172 33,000 167 434 0
2020-04-10 11:35:16 GMT 46.669556 42.351292 33,000 167 434 0
2020-04-10 11:35:10 GMT 46.679901 42.347942 33,000 167 434 0
2020-04-10 11:35:05 GMT 46.690033 42.344673 33,000 167 434 0
2020-04-10 11:35:00 GMT 46.699623 42.341652 33,000 167 434 0
2020-04-10 11:34:54 GMT 46.710480 42.338161 33,000 167 434 0
2020-04-10 11:34:49 GMT 46.721878 42.334541 33,000 167 434 -64
2020-04-10 11:34:45 GMT 46.730484 42.331795 33,000 167 434 0
2020-04-10 11:34:39 GMT 46.742542 42.327988 33,000 167 434 0
2020-04-10 11:34:34 GMT 46.750969 42.325241 33,000 167 434 0
2020-04-10 11:34:28 GMT 46.762886 42.321465 33,000 167 434 0
2020-04-10 11:34:23 GMT 46.771500 42.318718 33,000 167 434 0
2020-04-10 11:34:18 GMT 46.783173 42.314983 33,000 167 434 0
2020-04-10 11:34:14 GMT 46.791000 42.312435 33,000 167 434 0
2020-04-10 11:34:09 GMT 46.799606 42.309689 33,000 167 434 0
2020-04-10 11:34:06 GMT 46.806656 42.307411 33,000 167 434 0
2020-04-10 11:34:03 GMT 46.811672 42.305809 33,000 167 434 0
2020-04-10 11:33:57 GMT 46.823406 42.302032 33,000 167 434 0
2020-04-10 11:33:52 GMT 46.831924 42.299305 33,000 167 434 0
2020-04-10 11:33:47 GMT 46.843918 42.295486 33,000 167 434 0
2020-04-10 11:33:43 GMT 46.852036 42.292900 33,000 167 434 0
2020-04-10 11:33:36 GMT 46.864792 42.288780 33,000 167 434 0
2020-04-10 11:33:32 GMT 46.872608 42.286236 33,000 167 434 0
2020-04-10 11:33:26 GMT 46.885319 42.282150 33,000 167 434 0
2020-04-10 11:33:21 GMT 46.894165 42.279335 33,000 167 434 0
2020-04-10 11:33:18 GMT 46.900131 42.277451 33,000 167 434 0
2020-04-10 11:33:08 GMT 46.919128 42.271339 33,000 167 434 0
2020-04-10 11:33:05 GMT 46.925583 42.269211 33,000 167 434 0
2020-04-10 11:33:00 GMT 46.934372 42.266396 33,000 167 434 0
2020-04-10 11:32:55 GMT 46.948956 42.261658 33,000 167 434 0
2020-04-10 11:32:48 GMT 46.958965 42.258488 33,000 167 434 0
2020-04-10 11:32:42 GMT 46.970398 42.254723 33,000 167 434 0
2020-04-10 11:32:38 GMT 46.978935 42.252010 33,000 167 434 0
2020-04-10 11:32:33 GMT 46.987839 42.249092 33,000 167 434 0
2020-04-10 11:32:27 GMT 46.999008 42.245522 33,000 167 434 0
2020-04-10 11:32:22 GMT 47.010590 42.241745 33,000 167 434 0
2020-04-10 11:32:17 GMT 47.018692 42.239120 33,000 167 434 0
2020-04-10 11:32:09 GMT 47.039268 42.232502 33,000 167 434 0
2020-04-10 11:31:56 GMT 47.059052 42.226093 33,000 167 434 0
2020-04-10 11:31:47 GMT 47.078651 42.219753 33,000 167 434 0
2020-04-10 11:31:40 GMT 47.091171 42.215672 33,000 167 434 0
2020-04-10 11:31:36 GMT 47.099178 42.213062 33,000 167 434 0
2020-04-10 11:31:30 GMT 47.114079 42.208206 33,000 167 434 0
2020-04-10 11:31:26 GMT 47.119080 42.206589 33,000 167 434 0
2020-04-10 11:31:16 GMT 47.138611 42.200249 33,000 167 434 0
2020-04-10 11:31:05 GMT 47.159187 42.193558 33,000 167 435 0
2020-04-10 11:30:56 GMT 47.179092 42.187088 33,000 167 434 0
2020-04-10 11:30:45 GMT 47.199646 42.180428 33,000 167 434 0
2020-04-10 11:30:34 GMT 47.220123 42.173698 33,000 167 434 0
2020-04-10 11:30:24 GMT 47.240433 42.167107 33,000 167 434 0
2020-04-10 11:30:14 GMT 47.260113 42.160740 33,000 167 434 64
2020-04-10 11:30:04 GMT 47.281174 42.153854 33,000 167 434 0
2020-04-10 11:29:53 GMT 47.300949 42.147400 33,000 167 434 0
2020-04-10 11:29:42 GMT 47.321320 42.140739 33,000 167 434 0
2020-04-10 11:29:33 GMT 47.341579 42.134117 33,000 167 434 0
2020-04-10 11:29:25 GMT 47.358429 42.128555 33,000 167 433 0
2020-04-10 11:29:22 GMT 47.361736 42.127499 33,000 167 433 0
2020-04-10 11:29:14 GMT 47.377563 42.122288 33,000 167 433 0
2020-04-10 11:29:11 GMT 47.382637 42.120598 33,000 167 433 0
2020-04-10 11:29:04 GMT 47.398773 42.115334 33,000 167 433 0
2020-04-10 11:29:01 GMT 47.402981 42.113907 33,000 167 433 0
2020-04-10 11:28:51 GMT 47.422905 42.107426 33,000 167 433 0
2020-04-10 11:28:41 GMT 47.443542 42.100708 33,000 167 433 0
2020-04-10 11:28:30 GMT 47.463867 42.094048 33,000 167 433 64
2020-04-10 11:28:22 GMT 47.480537 42.088554 33,000 167 433 0
2020-04-10 11:28:19 GMT 47.483654 42.087566 33,000 167 432 0
2020-04-10 11:28:13 GMT 47.497715 42.082920 33,000 167 432 0
2020-04-10 11:28:10 GMT 47.503830 42.080933 33,000 167 432 0
2020-04-10 11:28:02 GMT 47.517883 42.076332 33,000 167 432 0
2020-04-10 11:27:59 GMT 47.524250 42.074184 33,000 167 432 0
2020-04-10 11:27:52 GMT 47.537979 42.069672 33,000 167 432 0
2020-04-10 11:27:49 GMT 47.544800 42.067406 33,000 167 432 0
2020-04-10 11:27:42 GMT 47.559303 42.062637 33,000 167 432 0
2020-04-10 11:27:38 GMT 47.565353 42.060593 33,000 167 432 0
2020-04-10 11:27:31 GMT 47.579681 42.055870 33,000 167 432 0
2020-04-10 11:27:28 GMT 47.584675 42.054256 33,000 167 432 0
2020-04-10 11:27:21 GMT 47.599476 42.049328 33,000 167 432 0
2020-04-10 11:27:18 GMT 47.605530 42.047356 33,000 167 432 0
2020-04-10 11:27:10 GMT 47.620056 42.042549 33,000 167 432 0
2020-04-10 11:27:07 GMT 47.625221 42.040806 33,000 167 432 0
2020-04-10 11:27:01 GMT 47.639511 42.036095 33,000 167 432 0
2020-04-10 11:26:56 GMT 47.646332 42.033829 33,000 167 432 0
2020-04-10 11:26:49 GMT 47.660202 42.029228 33,000 167 432 -64
2020-04-10 11:26:46 GMT 47.666245 42.027237 33,000 167 432 0
2020-04-10 11:26:42 GMT 47.673355 42.024887 33,000 167 432 0
2020-04-10 11:26:39 GMT 47.679886 42.022705 33,000 167 432 0
2020-04-10 11:26:34 GMT 47.688629 42.019821 33,000 167 432 0
2020-04-10 11:26:30 GMT 47.699284 42.016296 33,000 167 432 0
2020-04-10 11:26:26 GMT 47.705978 42.014053 33,000 167 432 0
2020-04-10 11:26:21 GMT 47.716789 42.010452 33,000 167 432 0
2020-04-10 11:26:15 GMT 47.727036 42.006981 33,000 167 432 0
2020-04-10 11:26:10 GMT 47.736786 42.003754 33,000 167 432 -64
2020-04-10 11:26:04 GMT 47.747864 42.000114 33,000 167 432 0
2020-04-10 11:26:00 GMT 47.756058 41.997368 33,000 167 432 0
2020-04-10 11:25:54 GMT 47.768143 41.993385 33,000 167 432 0
2020-04-10 11:25:50 GMT 47.775631 41.990871 33,000 167 432 0
2020-04-10 11:25:43 GMT 47.790062 41.986084 33,000 167 432 0
2020-04-10 11:25:39 GMT 47.796116 41.984043 33,000 167 432 0
2020-04-10 11:25:34 GMT 47.815571 41.977493 33,000 167 432 0
2020-04-10 11:25:30 GMT 47.815571 41.977493 33,000 167 432 0
2020-04-10 11:25:22 GMT 47.829163 41.972992 33,000 167 432 0
2020-04-10 11:25:19 GMT 47.835869 41.970730 33,000 167 432 0
2020-04-10 11:25:12 GMT 47.849693 41.966084 33,000 167 432 0
2020-04-10 11:25:09 GMT 47.855003 41.964321 33,000 167 432 0
2020-04-10 11:25:02 GMT 47.869308 41.959534 33,000 167 433 0
2020-04-10 11:24:58 GMT 47.876358 41.957199 33,000 167 433 0
2020-04-10 11:24:51 GMT 47.889915 41.952633 33,000 167 433 0
2020-04-10 11:24:44 GMT 47.904533 41.947701 33,000 167 433 0
2020-04-10 11:24:41 GMT 47.910587 41.945660 33,000 167 433 0
2020-04-10 11:24:38 GMT 47.916637 41.943619 33,000 167 433 0
2020-04-10 11:24:32 GMT 47.930237 41.939072 33,000 167 433 0
2020-04-10 11:24:28 GMT 47.934906 41.937492 33,000 167 433 0
2020-04-10 11:24:21 GMT 47.948898 41.932842 33,000 167 433 -64
2020-04-10 11:24:18 GMT 47.954533 41.930943 33,000 167 433 0
2020-04-10 11:24:10 GMT 47.969379 41.925941 33,000 167 433 64
2020-04-10 11:24:07 GMT 47.975853 41.923828 33,000 167 433 0
2020-04-10 11:24:01 GMT 47.992237 41.918335 33,000 167 433 0
2020-04-10 11:23:58 GMT 47.994427 41.917629 33,000 167 433 0
2020-04-10 11:23:47 GMT 48.014957 41.910728 33,000 167 433 0
2020-04-10 11:23:40 GMT 48.030178 41.905659 33,000 167 433 0
2020-04-10 11:23:37 GMT 48.034088 41.904320 33,000 167 433 0
2020-04-10 11:23:27 GMT 48.054432 41.897560 33,000 167 433 0
2020-04-10 11:23:16 GMT 48.075073 41.890663 33,000 167 433 0
2020-04-10 11:23:09 GMT 48.091278 41.885239 33,000 167 433 0
2020-04-10 11:23:06 GMT 48.094437 41.884140 33,000 167 433 0
2020-04-10 11:22:56 GMT 48.114250 41.877487 33,000 167 433 0
2020-04-10 11:22:47 GMT 48.134308 41.870750 33,000 167 433 0
2020-04-10 11:22:34 GMT 48.168457 41.859177 33,000 167 433 0
2020-04-10 11:22:25 GMT 48.175507 41.856853 33,000 167 432 0
2020-04-10 11:22:19 GMT 48.187851 41.852634 33,000 167 432 0
2020-04-10 11:22:16 GMT 48.193901 41.850609 33,000 167 432 0
2020-04-10 11:22:10 GMT 48.209015 41.845444 33,000 167 432 64
2020-04-10 11:22:06 GMT 48.213177 41.844032 33,000 167 432 64
2020-04-10 11:21:58 GMT 48.228287 41.838894 33,000 167 431 0
2020-04-10 11:21:55 GMT 48.235107 41.836571 33,000 167 431 0
2020-04-10 11:21:46 GMT 48.252960 41.830517 33,000 167 431 0
2020-04-10 11:21:42 GMT 48.258331 41.828636 33,000 167 431 0
2020-04-10 11:21:35 GMT 48.273506 41.823505 33,000 167 431 64
2020-04-10 11:21:24 GMT 48.296040 41.815845 33,000 167 431 -64
2020-04-10 11:21:13 GMT 48.316544 41.808823 33,000 167 430 0
2020-04-10 11:21:05 GMT 48.332840 41.803329 33,000 166 432 0
2020-04-10 11:21:02 GMT 48.336685 41.801922 33,000 165 432 0
2020-04-10 11:20:53 GMT 48.357861 41.792858 33,000 162 431 0
2020-04-10 11:20:44 GMT 48.378250 41.783318 33,000 162 431 0
2020-04-10 11:20:41 GMT 48.378250 41.783318 33,000 162 431 0
2020-04-10 11:20:34 GMT 48.391190 41.777248 33,000 162 431 0
2020-04-10 11:20:30 GMT 48.397934 41.774105 33,000 162 431 0
2020-04-10 11:20:20 GMT 48.420364 41.763538 33,000 162 431 0
2020-04-10 11:20:13 GMT 48.429703 41.759174 33,000 162 431 0
2020-04-10 11:20:09 GMT 48.437416 41.755493 33,000 162 431 0
2020-04-10 11:20:03 GMT 48.449661 41.749737 33,000 162 431 0
2020-04-10 11:19:59 GMT 48.456039 41.746746 33,000 162 432 0
2020-04-10 11:19:53 GMT 48.468658 41.740723 33,000 162 432 0
2020-04-10 11:19:49 GMT 48.476753 41.736916 33,000 162 432 0
2020-04-10 11:19:43 GMT 48.488159 41.731495 33,000 162 432 0
2020-04-10 11:19:40 GMT 48.494156 41.728680 33,000 162 432 0
2020-04-10 11:19:32 GMT 48.507294 41.722485 33,000 162 432 0
2020-04-10 11:19:28 GMT 48.514893 41.718819 33,000 162 431 0
2020-04-10 11:19:19 GMT 48.538101 41.707905 33,000 162 431 0
2020-04-10 11:19:13 GMT 48.545929 41.704243 33,000 162 431 -64
2020-04-10 11:19:09 GMT 48.552494 41.701138 33,000 162 431 -64
2020-04-10 11:19:06 GMT 48.558407 41.698318 33,000 162 431 0
2020-04-10 11:19:02 GMT 48.565063 41.695210 33,000 162 431 0
2020-04-10 11:18:59 GMT 48.571793 41.691990 33,000 162 431 0
2020-04-10 11:18:55 GMT 48.578110 41.689030 33,000 162 432 0
2020-04-10 11:18:52 GMT 48.584747 41.685932 33,000 162 432 0
2020-04-10 11:18:48 GMT 48.592670 41.682201 33,000 162 432 0
2020-04-10 11:18:45 GMT 48.597565 41.679874 33,000 162 432 0
2020-04-10 11:18:42 GMT 48.603935 41.676926 33,000 162 432 0
2020-04-10 11:18:36 GMT 48.616737 41.670925 33,000 162 432 0
2020-04-10 11:18:32 GMT 48.623581 41.667671 33,000 162 432 0
2020-04-10 11:18:28 GMT 48.631027 41.664204 33,000 162 432 0
2020-04-10 11:18:25 GMT 48.636475 41.661636 33,000 162 432 0
2020-04-10 11:18:22 GMT 48.643341 41.658398 33,000 162 432 0
2020-04-10 11:18:17 GMT 48.651234 41.654591 33,000 162 432 0
2020-04-10 11:18:14 GMT 48.656960 41.651917 33,000 162 432 0
2020-04-10 11:18:10 GMT 48.663940 41.648605 33,000 162 432 0
2020-04-10 11:18:04 GMT 48.675980 41.642975 33,000 162 432 0
2020-04-10 11:18:01 GMT 48.681957 41.640137 33,000 162 432 0
2020-04-10 11:17:57 GMT 48.691589 41.635578 33,000 162 432 0
2020-04-10 11:17:54 GMT 48.695023 41.633957 33,000 162 432 0
2020-04-10 11:17:51 GMT 48.701649 41.630810 33,000 162 432 0
2020-04-10 11:17:46 GMT 48.710587 41.626549 33,000 162 432 0
2020-04-10 11:17:40 GMT 48.721478 41.621414 33,000 162 432 0
2020-04-10 11:17:34 GMT 48.736004 41.614548 33,000 162 432 0
2020-04-10 11:17:31 GMT 48.740005 41.612671 33,000 162 432 0
2020-04-10 11:17:24 GMT 48.755089 41.605515 33,000 162 432 0
2020-04-10 11:17:20 GMT 48.759838 41.603271 33,000 162 432 0
2020-04-10 11:17:13 GMT 48.776642 41.595322 33,000 162 432 0
2020-04-10 11:17:10 GMT 48.778553 41.594383 33,000 162 432 0
2020-04-10 11:17:05 GMT 48.790100 41.588886 33,000 162 433 0
2020-04-10 11:17:00 GMT 48.798615 41.584843 33,000 162 433 0
2020-04-10 11:16:54 GMT 48.810150 41.579308 33,000 162 433 0
2020-04-10 11:16:50 GMT 48.817890 41.575665 33,000 162 433 0
2020-04-10 11:16:43 GMT 48.829834 41.569942 33,000 162 432 0
2020-04-10 11:16:39 GMT 48.837765 41.566120 33,000 162 432 0
2020-04-10 11:16:34 GMT 48.849033 41.560772 33,000 162 432 64
2020-04-10 11:16:30 GMT 48.858078 41.556419 33,000 162 433 0
2020-04-10 11:16:23 GMT 48.868675 41.551376 33,000 162 433 0
2020-04-10 11:16:18 GMT 48.878220 41.546825 33,000 162 432 0
2020-04-10 11:16:12 GMT 48.889572 41.541420 33,000 162 432 0
2020-04-10 11:16:07 GMT 48.898285 41.537285 33,000 162 432 0
2020-04-10 11:16:03 GMT 48.909180 41.532078 33,000 162 432 0
2020-04-10 11:15:58 GMT 48.915462 41.529114 33,000 162 432 0
2020-04-10 11:15:52 GMT 48.928162 41.523037 33,000 162 432 0
2020-04-10 11:15:47 GMT 48.936722 41.518955 33,000 162 432 0
2020-04-10 11:15:42 GMT 48.947910 41.513649 33,000 162 432 0
2020-04-10 11:15:38 GMT 48.957638 41.508949 33,000 162 433 0
2020-04-10 11:15:34 GMT 48.963924 41.505913 33,000 162 433 0
2020-04-10 11:15:30 GMT 48.969463 41.503239 33,000 162 433 0
2020-04-10 11:15:26 GMT 48.978073 41.499119 33,000 162 433 0
2020-04-10 11:15:20 GMT 48.988083 41.494373 33,000 162 433 0
2020-04-10 11:15:17 GMT 48.996418 41.490376 33,000 162 433 0
2020-04-10 11:15:13 GMT 49.003006 41.487263 33,000 162 433 0
2020-04-10 11:15:10 GMT 49.012390 41.482754 33,000 162 434 0
2020-04-10 11:15:06 GMT 49.016190 41.480923 33,000 162 434 -64
2020-04-10 11:15:02 GMT 49.022873 41.477684 33,000 162 434 -64
2020-04-10 11:14:59 GMT 49.029373 41.474586 33,000 162 433 64
2020-04-10 11:14:56 GMT 49.035194 41.471798 33,000 162 433 0
2020-04-10 11:14:52 GMT 49.042645 41.468185 33,000 162 433 64
2020-04-10 11:14:48 GMT 49.051529 41.463882 33,000 162 433 0
2020-04-10 11:14:45 GMT 49.056377 41.461536 33,000 162 433 0
2020-04-10 11:14:42 GMT 49.063824 41.457993 33,000 162 433 0
2020-04-10 11:14:36 GMT 49.074051 41.453037 33,000 162 432 0
2020-04-10 11:14:31 GMT 49.081879 41.449303 33,000 162 433 64
2020-04-10 11:14:26 GMT 49.094177 41.443394 33,000 162 433 0
2020-04-10 11:14:22 GMT 49.101151 41.440006 33,000 162 433 0
2020-04-10 11:14:18 GMT 49.113739 41.433880 33,000 162 433 0
2020-04-10 11:14:15 GMT 49.113739 41.433880 33,000 162 433 0
2020-04-10 11:14:12 GMT 49.120422 41.430641 33,000 162 433 0
2020-04-10 11:14:08 GMT 49.128616 41.426697 33,000 162 433 0
2020-04-10 11:14:05 GMT 49.132645 41.424725 33,000 162 433 0
2020-04-10 11:14:01 GMT 49.139423 41.421494 33,000 162 433 0
2020-04-10 11:13:55 GMT 49.152283 41.415218 33,000 162 433 0
2020-04-10 11:13:52 GMT 49.159744 41.411625 33,000 162 433 0
2020-04-10 11:13:46 GMT 49.176132 41.403736 33,000 162 433 0
2020-04-10 11:13:40 GMT 49.179977 41.401909 33,000 162 433 0
2020-04-10 11:13:36 GMT 49.188072 41.397930 33,000 162 433 0
2020-04-10 11:13:33 GMT 49.192932 41.395638 33,000 162 433 0
2020-04-10 11:13:30 GMT 49.199711 41.392365 33,000 162 433 -64
2020-04-10 11:13:24 GMT 49.210556 41.387089 33,000 162 433 0
2020-04-10 11:13:20 GMT 49.218475 41.383244 33,000 162 433 0
2020-04-10 11:13:14 GMT 49.230202 41.377621 33,000 162 433 0
2020-04-10 11:13:10 GMT 49.239258 41.373173 33,000 162 433 0
2020-04-10 11:13:06 GMT 49.247147 41.369381 33,000 162 432 0
2020-04-10 11:13:00 GMT 49.257248 41.364464 33,000 162 432 0
2020-04-10 11:12:56 GMT 49.264835 41.360779 33,000 162 432 0
2020-04-10 11:12:53 GMT 49.270477 41.358105 33,000 162 432 0
2020-04-10 11:12:43 GMT 49.288486 41.349358 33,000 162 432 0
2020-04-10 11:12:40 GMT 49.295197 41.346062 33,000 162 432 0
2020-04-10 11:12:34 GMT 49.305801 41.340977 33,000 162 432 0
2020-04-10 11:12:31 GMT 49.311401 41.338242 33,000 162 431 0
2020-04-10 11:12:24 GMT 49.325542 41.331287 33,000 162 432 0
2020-04-10 11:12:18 GMT 49.337814 41.325356 33,000 162 432 0
2020-04-10 11:12:14 GMT 49.345699 41.321533 33,000 162 432 0
2020-04-10 11:12:03 GMT 49.364925 41.312206 33,000 162 431 0
2020-04-10 11:11:54 GMT 49.381031 41.304401 33,000 162 431 0
2020-04-10 11:11:48 GMT 49.392624 41.298763 33,000 162 431 64
2020-04-10 11:11:43 GMT 49.404774 41.292835 33,000 162 431 0
2020-04-10 11:11:34 GMT 49.420368 41.285248 33,000 162 431 0
2020-04-10 11:11:24 GMT 49.439175 41.276005 33,000 162 431 0
2020-04-10 11:11:17 GMT 49.452164 41.269634 33,000 162 430 0
2020-04-10 11:11:12 GMT 49.463242 41.264202 33,000 162 430 0
2020-04-10 11:11:04 GMT 49.479034 41.256409 33,000 162 430 0
2020-04-10 11:11:00 GMT 49.484051 41.253960 33,000 162 430 0
2020-04-10 11:10:53 GMT 49.497757 41.247231 33,000 162 429 -64
2020-04-10 11:10:50 GMT 49.502106 41.245060 33,000 162 429 0
2020-04-10 11:10:41 GMT 49.521851 41.235401 33,000 162 429 64
2020-04-10 11:10:29 GMT 49.541496 41.225677 33,000 162 429 0
2020-04-10 11:10:20 GMT 49.560104 41.216511 33,000 162 429 0
2020-04-10 11:10:10 GMT 49.580181 41.206673 33,000 162 428 0
2020-04-10 11:09:58 GMT 49.600338 41.196728 33,000 162 428 0
2020-04-10 11:09:48 GMT 49.619007 41.187523 33,000 162 428 0
2020-04-10 11:09:39 GMT 49.639252 41.177483 33,000 162 428 0
2020-04-10 11:09:30 GMT 49.654861 41.169819 33,000 162 427 -64
2020-04-10 11:09:27 GMT 49.658798 41.167870 33,000 162 427 -64
2020-04-10 11:09:20 GMT 49.674496 41.160057 33,000 162 427 0
2020-04-10 11:09:07 GMT 49.696655 41.149071 33,000 162 427 0
2020-04-10 11:08:59 GMT 49.713089 41.140980 33,000 162 426 0
2020-04-10 11:08:56 GMT 49.717804 41.138668 33,000 162 426 0
2020-04-10 11:08:47 GMT 49.736572 41.129341 33,000 162 426 0
2020-04-10 11:08:39 GMT 49.751076 41.122196 33,000 162 426 0
2020-04-10 11:08:36 GMT 49.755661 41.119946 33,000 162 426 0
2020-04-10 11:08:29 GMT 49.770580 41.112549 33,000 162 426 64
2020-04-10 11:08:25 GMT 49.775234 41.110245 33,000 162 426 64
2020-04-10 11:08:16 GMT 49.793995 41.101040 33,000 162 426 0
2020-04-10 11:08:05 GMT 49.813873 41.091167 33,000 162 426 0
2020-04-10 11:07:58 GMT 49.826889 41.084747 33,000 162 426 0
2020-04-10 11:07:55 GMT 49.832703 41.081856 33,000 162 426 0
2020-04-10 11:07:45 GMT 49.852341 41.072025 33,000 162 426 0
2020-04-10 11:07:38 GMT 49.865616 41.065449 33,000 162 425 0
2020-04-10 11:07:34 GMT 49.872208 41.062122 33,000 162 425 0
2020-04-10 11:07:27 GMT 49.885666 41.055401 33,000 162 425 0
2020-04-10 11:07:24 GMT 49.891010 41.052715 33,000 162 425 0
2020-04-10 11:07:14 GMT 49.910568 41.042969 33,000 162 425 0
2020-04-10 11:07:07 GMT 49.922882 41.036755 33,000 162 425 0
2020-04-10 11:06:56 GMT 49.941891 41.027256 33,000 162 425 0
2020-04-10 11:06:52 GMT 49.949478 41.023457 33,000 162 425 0
2020-04-10 11:06:47 GMT 49.961243 41.017601 33,000 162 425 0
2020-04-10 11:06:43 GMT 49.969219 41.013596 33,000 162 425 0
2020-04-10 11:06:35 GMT 49.981842 41.007263 33,000 161 425 0
2020-04-10 11:06:32 GMT 49.987701 41.004318 33,000 162 425 0
2020-04-10 11:06:25 GMT 50.000641 40.997784 33,000 162 426 0
2020-04-10 11:06:22 GMT 50.007206 40.994518 33,000 162 426 0
2020-04-10 11:06:15 GMT 50.019356 40.988430 33,000 162 426 0
2020-04-10 11:06:11 GMT 50.026897 40.984646 33,000 162 426 0
2020-04-10 11:06:05 GMT 50.037930 40.979076 33,000 162 426 0
2020-04-10 11:06:01 GMT 50.046295 40.974957 33,000 162 427 0
2020-04-10 11:05:55 GMT 50.057007 40.969608 33,000 162 427 0
2020-04-10 11:05:51 GMT 50.065720 40.965199 33,000 162 427 0
2020-04-10 11:05:44 GMT 50.076920 40.959633 33,000 162 427 0
2020-04-10 11:05:40 GMT 50.085648 40.955250 33,000 162 428 64
2020-04-10 11:05:34 GMT 50.095367 40.950382 33,000 162 428 64
2020-04-10 11:05:29 GMT 50.105164 40.945469 33,000 162 428 0
2020-04-10 11:05:24 GMT 50.114510 40.940773 33,000 161 429 0
2020-04-10 11:05:20 GMT 50.124470 40.935726 33,000 161 429 0
2020-04-10 11:05:14 GMT 50.133499 40.931198 33,000 161 429 0
2020-04-10 11:05:04 GMT 50.153099 40.921249 33,000 161 429 64
2020-04-10 11:04:53 GMT 50.173119 40.911083 33,000 161 430 0
2020-04-10 11:04:43 GMT 50.191601 40.901730 33,000 161 430 0
2020-04-10 11:04:33 GMT 50.211430 40.891632 33,000 161 430 0
2020-04-10 11:04:23 GMT 50.230145 40.882130 33,000 161 430 0
2020-04-10 11:04:12 GMT 50.250824 40.871597 33,000 161 431 0
2020-04-10 11:04:02 GMT 50.268814 40.862419 33,000 162 431 0
2020-04-10 11:03:52 GMT 50.288425 40.852512 33,000 162 431 0
2020-04-10 11:03:42 GMT 50.308044 40.842541 33,000 161 432 0
2020-04-10 11:03:32 GMT 50.326996 40.832928 33,000 161 432 0
2020-04-10 11:03:21 GMT 50.346851 40.822895 33,000 161 432 0
2020-04-10 11:03:11 GMT 50.366169 40.813023 33,000 161 432 0
2020-04-10 11:03:01 GMT 50.385223 40.803295 33,000 161 431 0
2020-04-10 11:02:50 GMT 50.405785 40.792755 33,000 161 431 0
2020-04-10 11:02:41 GMT 50.424042 40.783417 33,000 161 431 0
2020-04-10 11:02:32 GMT 50.442471 40.773975 33,000 161 430 0
2020-04-10 11:02:29 GMT 50.445557 40.772430 33,000 161 430 0
2020-04-10 11:02:20 GMT 50.463364 40.763325 33,000 161 430 0
2020-04-10 11:02:10 GMT 50.482319 40.753635 33,000 161 430 0
2020-04-10 11:01:59 GMT 50.502335 40.743393 33,000 161 430 0
2020-04-10 11:01:49 GMT 50.521236 40.733742 33,000 161 430 0
2020-04-10 11:01:39 GMT 50.540222 40.724007 33,000 161 430 0
2020-04-10 11:01:29 GMT 50.559174 40.714218 33,000 161 429 0
2020-04-10 11:01:19 GMT 50.578857 40.704056 33,000 161 429 0
2020-04-10 11:01:08 GMT 50.598000 40.694176 33,000 161 429 0
2020-04-10 11:00:58 GMT 50.616898 40.684399 33,000 161 429 0
2020-04-10 11:00:48 GMT 50.636593 40.674282 33,000 161 429 -64
2020-04-10 11:00:38 GMT 50.655487 40.664520 33,000 161 429 64
2020-04-10 11:00:28 GMT 50.674667 40.654537 33,000 161 429 -64
2020-04-10 11:00:17 GMT 50.694626 40.644291 33,000 161 428 0
2020-04-10 11:00:07 GMT 50.713123 40.634689 33,000 161 428 64
2020-04-10 10:59:57 GMT 50.732674 40.624619 33,000 161 427 0
2020-04-10 10:59:47 GMT 50.751621 40.614777 33,000 161 427 0
2020-04-10 10:59:36 GMT 50.770893 40.604630 33,000 161 427 0
2020-04-10 10:59:26 GMT 50.790634 40.595016 33,000 164 424 0
2020-04-10 10:59:16 GMT 50.810165 40.586540 33,000 164 424 0
2020-04-10 10:59:08 GMT 50.826004 40.579708 33,000 164 424 64
2020-04-10 10:59:05 GMT 50.829876 40.578003 33,000 164 424 0
2020-04-10 10:58:55 GMT 50.848171 40.570068 33,000 164 423 0
2020-04-10 10:58:45 GMT 50.867954 40.561523 33,000 164 423 0
2020-04-10 10:58:35 GMT 50.887367 40.553055 33,000 164 423 0
2020-04-10 10:58:25 GMT 50.905804 40.545120 33,000 164 423 0
2020-04-10 10:58:15 GMT 50.925110 40.536732 33,000 164 422 0
2020-04-10 10:58:07 GMT 50.944721 40.528107 33,000 164 422 0
2020-04-10 10:57:54 GMT 50.963902 40.519714 33,000 164 422 0
2020-04-10 10:57:46 GMT 50.979584 40.512829 33,000 164 422 0
2020-04-10 10:57:43 GMT 50.983521 40.511120 33,000 164 422 0
2020-04-10 10:57:33 GMT 51.002289 40.502880 33,000 164 421 0
2020-04-10 10:57:23 GMT 51.021160 40.494690 33,000 164 421 0
2020-04-10 10:57:16 GMT 51.037079 40.487671 33,000 164 421 64
2020-04-10 10:57:13 GMT 51.040993 40.485992 33,000 164 421 0
2020-04-10 10:57:03 GMT 51.059830 40.477715 33,000 164 421 -64
2020-04-10 10:56:53 GMT 51.078838 40.469360 33,000 164 421 64
2020-04-10 10:56:42 GMT 51.098343 40.460815 33,000 164 421 0
2020-04-10 10:56:32 GMT 51.117245 40.452499 33,000 164 420 0
2020-04-10 10:56:25 GMT 51.133072 40.445499 33,000 164 420 0
2020-04-10 10:56:22 GMT 51.136887 40.443802 33,000 164 420 0
2020-04-10 10:56:14 GMT 51.151321 40.437546 33,000 164 420 0
2020-04-10 10:56:11 GMT 51.155869 40.435478 33,000 164 420 0
2020-04-10 10:56:01 GMT 51.174545 40.427238 33,000 164 420 0
2020-04-10 10:55:54 GMT 51.190144 40.420380 33,000 164 419 0
2020-04-10 10:55:51 GMT 51.194000 40.418701 33,000 164 419 0
2020-04-10 10:55:41 GMT 51.212769 40.410461 33,000 164 419 0
2020-04-10 10:55:34 GMT 51.228596 40.403442 33,000 164 419 0
2020-04-10 10:55:30 GMT 51.232319 40.401764 33,000 164 419 0
2020-04-10 10:55:20 GMT 51.251549 40.393295 33,000 164 419 0
2020-04-10 10:55:13 GMT 51.266071 40.386887 33,000 164 419 0
2020-04-10 10:55:10 GMT 51.270355 40.384979 33,000 164 419 0
2020-04-10 10:55:03 GMT 51.284737 40.378647 33,000 164 418 -64
2020-04-10 10:55:00 GMT 51.289490 40.376614 33,000 164 418 -64
2020-04-10 10:54:50 GMT 51.307968 40.368423 33,000 164 418 64
2020-04-10 10:54:43 GMT 51.322865 40.361786 33,000 164 418 0
2020-04-10 10:54:39 GMT 51.327942 40.359539 33,000 164 418 0
2020-04-10 10:54:32 GMT 51.342369 40.353165 33,000 164 417 0
2020-04-10 10:54:29 GMT 51.346161 40.351448 33,000 164 417 0
2020-04-10 10:54:22 GMT 51.360943 40.344925 33,000 164 417 0
2020-04-10 10:54:19 GMT 51.365479 40.342911 33,000 164 417 0
2020-04-10 10:54:09 GMT 51.384613 40.334373 33,000 164 417 0
2020-04-10 10:54:01 GMT 51.398792 40.327988 33,000 164 417 0
2020-04-10 10:53:58 GMT 51.403702 40.325764 33,000 164 417 0
2020-04-10 10:53:52 GMT 51.417252 40.319675 33,000 164 417 0
2020-04-10 10:53:48 GMT 51.421974 40.317535 33,000 164 416 -64
2020-04-10 10:53:41 GMT 51.436451 40.310974 33,000 164 416 0
2020-04-10 10:53:38 GMT 51.441059 40.308914 33,000 164 416 0
2020-04-10 10:53:31 GMT 51.455120 40.302505 33,000 164 416 0
2020-04-10 10:53:28 GMT 51.460522 40.300140 33,000 164 416 0
2020-04-10 10:53:18 GMT 51.479095 40.291763 33,000 164 416 64
2020-04-10 10:53:10 GMT 51.493515 40.285454 33,000 164 415 0
2020-04-10 10:53:07 GMT 51.498413 40.283279 33,000 165 415 0
2020-04-10 10:53:01 GMT 51.511772 40.277634 33,000 165 415 0
2020-04-10 10:52:57 GMT 51.517227 40.275284 33,000 165 415 0
2020-04-10 10:52:47 GMT 51.536537 40.267029 33,000 165 415 0
2020-04-10 10:52:40 GMT 51.549591 40.261402 33,000 165 414 0
2020-04-10 10:52:36 GMT 51.555206 40.259018 33,000 165 414 0
2020-04-10 10:52:30 GMT 51.568451 40.253387 33,000 165 413 0
2020-04-10 10:52:26 GMT 51.574722 40.250713 33,000 165 413 0
2020-04-10 10:52:19 GMT 51.587814 40.245148 33,000 165 413 64
2020-04-10 10:52:16 GMT 51.593353 40.242771 33,000 165 413 0
2020-04-10 10:52:10 GMT 51.605995 40.237350 33,000 165 413 -64
2020-04-10 10:52:05 GMT 51.612652 40.234528 33,000 165 413 0
2020-04-10 10:51:59 GMT 51.624893 40.229336 33,000 164 413 0
2020-04-10 10:51:56 GMT 51.630527 40.226898 33,000 164 413 0
2020-04-10 10:51:49 GMT 51.642910 40.221634 33,000 165 412 0
2020-04-10 10:51:45 GMT 51.649796 40.218647 33,000 165 412 0
2020-04-10 10:51:39 GMT 51.662231 40.213318 33,000 164 413 0
2020-04-10 10:51:35 GMT 51.668327 40.210724 33,000 164 413 0
2020-04-10 10:51:28 GMT 51.681782 40.204926 33,000 165 412 0
2020-04-10 10:51:25 GMT 51.687607 40.202389 33,000 164 413 0
2020-04-10 10:51:18 GMT 51.699238 40.197067 33,000 162 414 0
2020-04-10 10:51:14 GMT 51.706734 40.193176 33,000 160 415 0
2020-04-10 10:51:08 GMT 51.718372 40.186539 33,000 158 418 0
2020-04-10 10:51:04 GMT 51.725590 40.181961 33,000 157 419 -64
2020-04-10 10:50:58 GMT 51.736481 40.174408 33,000 154 422 -64
2020-04-10 10:50:54 GMT 51.743454 40.169132 33,000 153 423 0
2020-04-10 10:50:48 GMT 51.754166 40.160599 33,000 153 424 64
2020-04-10 10:50:44 GMT 51.761246 40.154953 33,000 153 424 0
2020-04-10 10:50:38 GMT 51.771835 40.146420 33,000 153 424 -64
2020-04-10 10:50:34 GMT 51.778702 40.140926 33,000 153 424 0
2020-04-10 10:50:27 GMT 51.790237 40.131645 33,000 153 424 0
2020-04-10 10:50:24 GMT 51.796555 40.126598 33,000 153 424 -64
2020-04-10 10:50:18 GMT 51.807846 40.117493 33,000 153 423 0
2020-04-10 10:50:13 GMT 51.815643 40.111233 33,000 153 423 0
2020-04-10 10:50:07 GMT 51.826233 40.102692 33,000 153 423 0
2020-04-10 10:50:03 GMT 51.833076 40.097198 33,000 153 423 0
2020-04-10 10:49:57 GMT 51.843796 40.088516 33,000 153 422 0
2020-04-10 10:49:53 GMT 51.850433 40.083172 33,000 153 422 0
2020-04-10 10:49:47 GMT 51.861523 40.074234 33,000 153 422 0
2020-04-10 10:49:42 GMT 51.869843 40.067509 33,000 153 422 -64
2020-04-10 10:49:36 GMT 51.880047 40.059280 33,000 153 422 0
2020-04-10 10:49:32 GMT 51.886047 40.054443 33,000 153 422 64
2020-04-10 10:49:27 GMT 51.897133 40.045479 33,000 153 422 64
2020-04-10 10:49:22 GMT 51.904255 40.039673 33,000 153 422 0
2020-04-10 10:49:16 GMT 51.914612 40.031204 33,000 153 422 0
2020-04-10 10:49:12 GMT 51.922302 40.024948 33,000 153 422 0
2020-04-10 10:49:06 GMT 51.932877 40.016327 33,000 153 421 0
2020-04-10 10:49:01 GMT 51.939960 40.010639 33,000 153 421 -64
2020-04-10 10:48:55 GMT 51.950901 40.001770 33,000 153 421 64
2020-04-10 10:48:51 GMT 51.958023 39.995964 33,000 153 421 64
2020-04-10 10:48:45 GMT 51.969151 39.986858 33,000 153 420 0
2020-04-10 10:48:41 GMT 51.975574 39.981682 33,000 153 420 0
2020-04-10 10:48:36 GMT 51.986141 39.973049 33,000 153 420 -64
2020-04-10 10:48:31 GMT 51.993122 39.967400 33,000 153 420 -64
2020-04-10 10:48:25 GMT 52.003464 39.959030 33,000 153 420 0
2020-04-10 10:48:20 GMT 52.011246 39.952698 33,000 153 420 0
2020-04-10 10:48:14 GMT 52.022125 39.943935 33,000 153 420 0
2020-04-10 10:48:10 GMT 52.028778 39.938507 33,000 153 420 0
2020-04-10 10:48:05 GMT 52.038345 39.930725 33,000 153 420 -64
2020-04-10 10:48:00 GMT 52.046379 39.924160 33,000 153 419 0
2020-04-10 10:47:54 GMT 52.056335 39.916077 33,000 153 419 0
2020-04-10 10:47:50 GMT 52.064396 39.909485 33,000 153 419 0
2020-04-10 10:47:45 GMT 52.074265 39.901558 33,000 153 419 0
2020-04-10 10:47:39 GMT 52.082153 39.895172 33,000 153 419 64
2020-04-10 10:47:34 GMT 52.092838 39.886570 33,000 153 419 0
2020-04-10 10:47:29 GMT 52.100101 39.880684 33,000 153 419 0
2020-04-10 10:47:24 GMT 52.109894 39.872742 33,000 153 419 0
2020-04-10 10:47:19 GMT 52.117416 39.866638 33,000 153 419 0
2020-04-10 10:47:13 GMT 52.128616 39.857559 33,000 153 419 0
2020-04-10 10:47:08 GMT 52.136581 39.851074 33,000 153 419 0
2020-04-10 10:47:03 GMT 52.145920 39.843445 33,000 153 419 0
2020-04-10 10:46:59 GMT 52.152939 39.837761 33,000 153 419 -64
2020-04-10 10:46:54 GMT 52.163406 39.829178 33,000 153 419 -64
2020-04-10 10:46:48 GMT 52.170952 39.823006 33,000 153 419 0
2020-04-10 10:46:43 GMT 52.181442 39.814453 33,000 153 419 0
2020-04-10 10:46:38 GMT 52.188599 39.808567 33,000 153 419 0
2020-04-10 10:46:33 GMT 52.198059 39.800873 33,000 153 420 0
2020-04-10 10:46:27 GMT 52.206894 39.793701 33,000 153 420 0
2020-04-10 10:46:22 GMT 52.216278 39.786072 33,000 153 420 0
2020-04-10 10:46:18 GMT 52.223877 39.779816 33,000 153 420 0
2020-04-10 10:46:12 GMT 52.233707 39.771843 33,000 153 420 0
2020-04-10 10:46:07 GMT 52.241776 39.765244 33,000 153 420 0
2020-04-10 10:46:03 GMT 52.251984 39.756927 33,000 153 420 0
2020-04-10 10:45:57 GMT 52.259811 39.750519 33,000 153 420 0
2020-04-10 10:45:52 GMT 52.268829 39.743118 33,000 153 421 0
2020-04-10 10:45:47 GMT 52.277092 39.736374 33,000 153 421 0
2020-04-10 10:45:42 GMT 52.286957 39.728317 33,000 153 421 0
2020-04-10 10:45:37 GMT 52.295288 39.721527 33,000 153 421 0
2020-04-10 10:45:31 GMT 52.304790 39.713772 33,000 153 421 0
2020-04-10 10:45:26 GMT 52.312798 39.707180 33,000 153 421 0
2020-04-10 10:45:21 GMT 52.322800 39.699020 33,000 153 421 0
2020-04-10 10:45:16 GMT 52.330948 39.692307 33,000 153 421 -64
2020-04-10 10:45:12 GMT 52.340195 39.684753 33,000 153 421 0
2020-04-10 10:45:06 GMT 52.348022 39.678345 33,000 153 421 0
2020-04-10 10:45:01 GMT 52.358459 39.669800 33,000 153 422 0
2020-04-10 10:44:56 GMT 52.366150 39.663544 33,000 153 422 0
2020-04-10 10:44:50 GMT 52.375900 39.655533 33,000 153 422 0
2020-04-10 10:44:46 GMT 52.383728 39.649048 33,000 153 422 0
2020-04-10 10:44:39 GMT 52.395767 39.639206 33,000 153 422 -64
2020-04-10 10:44:35 GMT 52.401855 39.634247 33,000 153 422 -64
2020-04-10 10:44:30 GMT 52.411102 39.626694 33,000 153 422 -64
2020-04-10 10:44:25 GMT 52.419403 39.619919 33,000 153 422 0
2020-04-10 10:44:21 GMT 52.428478 39.612541 33,000 153 422 0
2020-04-10 10:44:15 GMT 52.438068 39.604694 33,000 155 421 0
2020-04-10 10:44:10 GMT 52.446442 39.598389 33,000 157 418 0
2020-04-10 10:44:05 GMT 52.455688 39.591827 33,000 157 418 64
2020-04-10 10:44:00 GMT 52.464798 39.585724 33,000 157 418 0
2020-04-10 10:43:54 GMT 52.474007 39.579502 33,000 157 419 0
2020-04-10 10:43:50 GMT 52.483505 39.573147 33,000 157 419 0
2020-04-10 10:43:44 GMT 52.491989 39.567413 33,000 157 419 0
2020-04-10 10:43:39 GMT 52.501511 39.561081 33,000 157 419 0
2020-04-10 10:43:34 GMT 52.510620 39.554901 33,000 157 419 0
2020-04-10 10:43:30 GMT 52.519913 39.548645 33,000 157 419 -64
2020-04-10 10:43:24 GMT 52.528885 39.542618 33,000 157 419 -64
2020-04-10 10:43:19 GMT 52.537926 39.536575 33,000 157 419 64
2020-04-10 10:43:13 GMT 52.547421 39.530220 33,000 157 419 0
2020-04-10 10:43:09 GMT 52.566147 39.517593 33,000 157 419 0
2020-04-10 10:43:03 GMT 52.566147 39.517593 33,000 157 419 0
2020-04-10 10:42:58 GMT 52.575302 39.511414 33,000 157 420 -64
2020-04-10 10:42:52 GMT 52.584961 39.504852 33,000 157 420 -64
2020-04-10 10:42:48 GMT 52.593933 39.498749 33,000 157 420 0
2020-04-10 10:42:42 GMT 52.604004 39.491959 33,000 157 420 0
2020-04-10 10:42:38 GMT 52.610962 39.487228 33,000 157 420 0
2020-04-10 10:42:32 GMT 52.620850 39.480591 33,000 157 420 0
2020-04-10 10:42:28 GMT 52.629726 39.474583 33,000 157 420 64
2020-04-10 10:42:22 GMT 52.639160 39.468155 33,000 157 420 0
2020-04-10 10:42:17 GMT 52.648766 39.461716 33,000 157 421 0
2020-04-10 10:42:12 GMT 52.658020 39.455414 33,000 157 421 0
2020-04-10 10:42:07 GMT 52.667107 39.449238 33,000 157 421 0
2020-04-10 10:42:01 GMT 52.676559 39.442825 33,000 157 421 0
2020-04-10 10:41:58 GMT 52.684982 39.437027 33,000 157 422 0
2020-04-10 10:41:51 GMT 52.695053 39.430161 33,000 157 422 0
2020-04-10 10:41:48 GMT 52.703465 39.424438 33,000 157 422 0
2020-04-10 10:41:44 GMT 52.709473 39.420319 33,000 157 423 0
2020-04-10 10:41:37 GMT 52.721375 39.412155 33,000 157 423 0
2020-04-10 10:41:31 GMT 52.730942 39.405670 33,000 157 423 0
2020-04-10 10:41:27 GMT 52.739227 39.399948 33,000 157 424 0
2020-04-10 10:41:21 GMT 52.749828 39.392735 33,000 157 424 0
2020-04-10 10:41:16 GMT 52.758591 39.386749 33,000 157 424 0
2020-04-10 10:41:13 GMT 52.765823 39.381714 33,000 157 424 0
2020-04-10 10:41:10 GMT 52.768707 39.379730 33,000 157 424 0
2020-04-10 10:41:05 GMT 52.779297 39.372410 33,000 157 426 0
2020-04-10 10:41:00 GMT 52.786934 39.367153 33,000 157 426 0
2020-04-10 10:40:56 GMT 52.794334 39.362053 33,000 157 426 0
2020-04-10 10:40:50 GMT 52.805599 39.354282 33,000 157 426 0
2020-04-10 10:40:47 GMT 52.813374 39.348869 33,000 157 426 0
2020-04-10 10:40:40 GMT 52.823639 39.341736 33,000 157 426 64
2020-04-10 10:40:33 GMT 52.838234 39.331604 33,000 157 427 0
2020-04-10 10:40:30 GMT 52.842609 39.328545 33,000 157 426 0
2020-04-10 10:40:26 GMT 52.849960 39.323502 33,000 157 427 0
2020-04-10 10:40:19 GMT 52.861633 39.315567 33,000 157 427 0
2020-04-10 10:40:15 GMT 52.869095 39.310455 33,000 157 426 0
2020-04-10 10:40:09 GMT 52.880035 39.303055 33,000 157 426 0
2020-04-10 10:40:05 GMT 52.887497 39.297943 33,000 157 426 0
2020-04-10 10:39:59 GMT 52.898804 39.290237 33,000 157 427 0
2020-04-10 10:39:56 GMT 52.906387 39.285149 33,000 157 426 0
2020-04-10 10:39:48 GMT 52.918488 39.276886 33,000 157 426 0
2020-04-10 10:39:45 GMT 52.924896 39.272614 33,000 157 426 0
2020-04-10 10:39:38 GMT 52.937302 39.264221 33,000 157 427 0
2020-04-10 10:39:35 GMT 52.943394 39.260036 33,000 157 427 0
2020-04-10 10:39:28 GMT 52.956337 39.251167 33,000 157 427 0
2020-04-10 10:39:24 GMT 52.976990 39.236908 33,000 157 427 0
2020-04-10 10:39:17 GMT 52.976990 39.236908 33,000 157 428 0
2020-04-10 10:39:14 GMT 52.980652 39.234390 33,000 157 428 0
2020-04-10 10:39:08 GMT 52.992043 39.226448 33,000 157 428 0
2020-04-10 10:39:05 GMT 52.999420 39.221420 33,000 157 427 64
2020-04-10 10:38:56 GMT 53.014805 39.210754 33,000 157 428 0
2020-04-10 10:38:47 GMT 53.028946 39.200974 33,000 157 427 0
2020-04-10 10:38:44 GMT 53.035675 39.196320 33,000 157 427 0
2020-04-10 10:38:37 GMT 53.048264 39.187698 33,000 157 428 0
2020-04-10 10:38:34 GMT 53.054626 39.183273 33,000 157 428 0
2020-04-10 10:38:27 GMT 53.066570 39.174969 33,000 157 427 0
2020-04-10 10:38:24 GMT 53.073029 39.170532 33,000 157 427 0
2020-04-10 10:38:17 GMT 53.084702 39.162445 33,000 157 427 64
2020-04-10 10:38:14 GMT 53.091797 39.157562 33,000 157 427 0
2020-04-10 10:38:06 GMT 53.103973 39.149075 33,000 157 427 64
2020-04-10 10:38:03 GMT 53.110100 39.144852 33,000 157 427 64
2020-04-10 10:37:56 GMT 53.122295 39.136372 33,000 157 427 64
2020-04-10 10:37:51 GMT 53.131744 39.129826 33,000 157 427 0
2020-04-10 10:37:46 GMT 53.141098 39.123257 33,000 157 427 0
2020-04-10 10:37:43 GMT 53.147644 39.118706 33,000 157 427 -64
2020-04-10 10:37:36 GMT 53.159637 39.110310 33,000 157 427 0
2020-04-10 10:37:31 GMT 53.167282 39.104973 33,000 157 427 0
2020-04-10 10:37:25 GMT 53.177925 39.097515 33,000 157 427 0
2020-04-10 10:37:22 GMT 53.186443 39.091537 33,000 157 426 0
2020-04-10 10:37:15 GMT 53.196899 39.084175 33,000 157 426 0
2020-04-10 10:37:11 GMT 53.205158 39.078369 33,000 157 427 0
2020-04-10 10:37:05 GMT 53.215118 39.071342 33,000 157 427 0
2020-04-10 10:37:00 GMT 53.224686 39.064636 33,000 157 427 64
2020-04-10 10:36:55 GMT 53.233833 39.058174 33,000 157 428 64
2020-04-10 10:36:52 GMT 53.243332 39.051552 33,000 157 428 0
2020-04-10 10:36:44 GMT 53.252968 39.044765 33,000 157 428 0
2020-04-10 10:36:40 GMT 53.262543 39.038033 33,000 157 428 0
2020-04-10 10:36:32 GMT 53.278290 39.026993 33,000 157 428 64
2020-04-10 10:36:28 GMT 53.281784 39.024567 33,000 157 428 0
2020-04-10 10:36:24 GMT 53.290237 39.018574 33,000 157 428 0
2020-04-10 10:36:21 GMT 53.296352 39.014309 33,000 157 428 0
2020-04-10 10:36:18 GMT 53.300171 39.011642 33,000 157 428 0
2020-04-10 10:36:14 GMT 53.308365 39.005909 33,000 157 428 0
2020-04-10 10:36:11 GMT 53.313950 39.001938 33,000 157 428 0
2020-04-10 10:36:08 GMT 53.320980 38.997021 33,000 157 428 0
2020-04-10 10:36:03 GMT 53.327225 38.992676 33,000 157 428 0
2020-04-10 10:36:00 GMT 53.332901 38.988674 33,000 157 428 0
2020-04-10 10:35:57 GMT 53.339741 38.983936 33,000 157 428 0
2020-04-10 10:35:53 GMT 53.346039 38.979492 33,000 157 428 -64
2020-04-10 10:35:50 GMT 53.352310 38.975128 33,000 157 428 0
2020-04-10 10:35:47 GMT 53.358871 38.970524 33,000 157 428 0
2020-04-10 10:35:43 GMT 53.364319 38.966728 33,000 157 427 -64
2020-04-10 10:35:39 GMT 53.372223 38.961128 33,000 157 427 -64
2020-04-10 10:35:36 GMT 53.377533 38.957439 33,000 157 427 0
2020-04-10 10:35:33 GMT 53.383347 38.953362 33,000 157 427 64
2020-04-10 10:35:30 GMT 53.388794 38.949516 33,000 157 427 0
2020-04-10 10:35:26 GMT 53.397171 38.943630 33,000 157 427 -64
2020-04-10 10:35:20 GMT 53.407986 38.936031 33,000 157 427 64
2020-04-10 10:35:15 GMT 53.416180 38.930214 33,000 157 428 0
2020-04-10 10:35:12 GMT 53.420925 38.926903 33,000 157 428 0
2020-04-10 10:35:09 GMT 53.426373 38.923027 33,000 157 428 0
2020-04-10 10:35:04 GMT 53.435127 38.916885 33,000 157 428 0
2020-04-10 10:35:00 GMT 53.444435 38.910343 33,000 157 428 0
2020-04-10 10:34:54 GMT 53.453979 38.903530 33,000 157 428 0
2020-04-10 10:34:50 GMT 53.463089 38.897095 33,000 157 428 0
2020-04-10 10:34:42 GMT 53.476326 38.887806 33,000 157 428 0
2020-04-10 10:34:39 GMT 53.482143 38.883686 33,000 157 427 0
2020-04-10 10:34:36 GMT 53.487854 38.879597 33,000 157 427 0
2020-04-10 10:34:33 GMT 53.492340 38.876415 33,000 157 427 0
2020-04-10 10:34:29 GMT 53.500397 38.870728 33,000 157 427 0
2020-04-10 10:34:25 GMT 53.506676 38.866238 33,000 157 427 64
2020-04-10 10:34:22 GMT 53.511051 38.863167 33,000 157 427 0
2020-04-10 10:34:19 GMT 53.518387 38.857937 33,000 157 426 0
2020-04-10 10:34:12 GMT 53.531906 38.848385 33,000 157 426 0
2020-04-10 10:34:08 GMT 53.536560 38.845146 33,000 157 426 -64
2020-04-10 10:34:04 GMT 53.544708 38.839336 33,000 157 425 0
2020-04-10 10:33:58 GMT 53.555374 38.831806 33,000 157 425 0
2020-04-10 10:33:51 GMT 53.569153 38.821995 33,000 157 425 0
2020-04-10 10:33:48 GMT 53.573868 38.818699 33,000 156 424 64
2020-04-10 10:33:44 GMT 53.581718 38.813084 33,000 157 425 0
2020-04-10 10:33:38 GMT 53.592087 38.805672 33,000 157 425 0
2020-04-10 10:33:33 GMT 53.600235 38.799866 33,000 157 425 0
2020-04-10 10:33:27 GMT 53.610626 38.792480 33,000 156 426 0
2020-04-10 10:33:24 GMT 53.617218 38.787781 33,000 156 426 0
2020-04-10 10:33:18 GMT 53.629250 38.779236 33,000 157 425 -64
2020-04-10 10:33:13 GMT 53.636650 38.773903 33,000 157 425 0
2020-04-10 10:33:07 GMT 53.648010 38.765823 33,000 157 425 0
2020-04-10 10:33:03 GMT 53.654713 38.760979 33,000 156 426 0
2020-04-10 10:32:59 GMT 53.662582 38.755371 33,000 156 426 0
2020-04-10 10:32:56 GMT 53.666931 38.752232 33,000 156 426 0
2020-04-10 10:32:53 GMT 53.672516 38.748230 33,000 156 426 0
2020-04-10 10:32:49 GMT 53.680664 38.742424 33,000 156 426 0
2020-04-10 10:32:46 GMT 53.684925 38.739410 33,000 156 426 0
2020-04-10 10:32:43 GMT 53.691879 38.734421 33,000 156 426 -64
2020-04-10 10:32:37 GMT 53.703094 38.726337 33,000 156 426 -64
2020-04-10 10:32:32 GMT 53.710575 38.720989 33,000 156 426 -64
2020-04-10 10:32:26 GMT 53.721981 38.712830 33,000 156 426 0
2020-04-10 10:32:22 GMT 53.729568 38.707336 33,000 156 425 0
2020-04-10 10:32:16 GMT 53.743195 38.697613 33,000 156 425 0
2020-04-10 10:32:12 GMT 53.749512 38.693062 33,000 156 425 64
2020-04-10 10:32:08 GMT 53.755032 38.689083 33,000 156 425 64
2020-04-10 10:32:05 GMT 53.759174 38.686092 33,000 156 425 0
2020-04-10 10:32:02 GMT 53.765835 38.681248 33,000 156 425 64
2020-04-10 10:31:56 GMT 53.777664 38.672737 33,000 156 425 0
2020-04-10 10:31:52 GMT 53.783710 38.668400 33,000 156 425 0
2020-04-10 10:31:45 GMT 53.796326 38.659271 33,000 156 425 0
2020-04-10 10:31:42 GMT 53.801834 38.655315 33,000 156 425 0
2020-04-10 10:31:35 GMT 53.814468 38.646214 33,000 156 424 0
2020-04-10 10:31:30 GMT 53.821926 38.640854 33,000 156 424 0
2020-04-10 10:31:27 GMT 53.828339 38.636250 33,000 156 424 0
2020-04-10 10:31:24 GMT 53.832825 38.633030 33,000 156 424 0
2020-04-10 10:31:20 GMT 53.841389 38.626881 33,000 156 422 64
2020-04-10 10:31:15 GMT 53.851593 38.619534 33,000 156 423 64
2020-04-10 10:31:10 GMT 53.858963 38.614197 33,000 156 423 0
2020-04-10 10:31:07 GMT 53.863815 38.610744 33,000 156 422 64
2020-04-10 10:31:04 GMT 53.870064 38.606281 33,000 156 423 -64
2020-04-10 10:31:00 GMT 53.878784 38.599995 33,000 156 423 -64
2020-04-10 10:30:54 GMT 53.888035 38.593353 33,000 156 422 -64
2020-04-10 10:30:49 GMT 53.898460 38.585842 33,000 156 422 64
2020-04-10 10:30:44 GMT 53.906002 38.580349 33,000 156 422 64
2020-04-10 10:30:41 GMT 53.912888 38.575432 33,000 156 422 0
2020-04-10 10:30:37 GMT 53.919708 38.570488 33,000 156 422 0
2020-04-10 10:30:34 GMT 53.925110 38.566643 33,000 156 422 0
2020-04-10 10:30:29 GMT 53.932350 38.561363 33,000 156 422 0
2020-04-10 10:30:26 GMT 53.939892 38.555954 33,000 156 422 0
2020-04-10 10:30:23 GMT 53.943802 38.553043 33,000 156 422 0
2020-04-10 10:30:20 GMT 53.949387 38.549007 33,000 156 421 0
2020-04-10 10:30:13 GMT 53.961456 38.540276 33,000 156 421 0
2020-04-10 10:30:09 GMT 53.967964 38.535515 33,000 156 421 64
2020-04-10 10:30:06 GMT 53.975739 38.529839 33,000 156 421 64
2020-04-10 10:30:02 GMT 53.980251 38.526546 33,000 156 421 64
2020-04-10 10:29:59 GMT 53.987423 38.521297 33,000 156 421 0
2020-04-10 10:29:55 GMT 53.994545 38.516129 33,000 156 421 -64
2020-04-10 10:29:52 GMT 54.004486 38.508884 33,000 156 422 0
2020-04-10 10:29:49 GMT 54.004486 38.508884 33,000 156 421 -64
2020-04-10 10:29:45 GMT 54.013351 38.502396 33,000 156 422 64
2020-04-10 10:29:42 GMT 54.016846 38.499859 33,000 156 422 64
2020-04-10 10:29:38 GMT 54.031311 38.489265 33,000 156 423 -64
2020-04-10 10:29:34 GMT 54.031311 38.489265 33,000 156 422 -128
2020-04-10 10:29:29 GMT 54.040726 38.482361 33,000 156 423 -64
2020-04-10 10:29:22 GMT 54.053108 38.473392 33,000 156 423 128
2020-04-10 10:29:18 GMT 54.060463 38.468063 33,000 156 423 -64
2020-04-10 10:29:14 GMT 54.067307 38.463055 33,000 156 423 -64
2020-04-10 10:29:11 GMT 54.071503 38.459995 33,000 156 423 -64
2020-04-10 10:29:08 GMT 54.078243 38.455055 33,000 156 422 64
2020-04-10 10:29:04 GMT 54.085415 38.449886 33,000 156 423 0
2020-04-10 10:29:01 GMT 54.091000 38.445766 33,000 156 423 64
2020-04-10 10:28:58 GMT 54.096451 38.441792 33,000 156 423 0
2020-04-10 10:28:54 GMT 54.106083 38.434780 33,000 156 423 0
2020-04-10 10:28:51 GMT 54.107853 38.433487 33,000 156 423 0
2020-04-10 10:28:48 GMT 54.114510 38.428642 33,000 156 423 0
2020-04-10 10:28:44 GMT 54.121490 38.423553 33,000 156 423 64
2020-04-10 10:28:40 GMT 54.127533 38.419109 33,000 156 423 64
2020-04-10 10:28:37 GMT 54.132992 38.415150 33,000 156 423 0
2020-04-10 10:28:31 GMT 54.147888 38.404327 33,000 156 423 -64
2020-04-10 10:28:28 GMT 54.151382 38.401768 33,000 156 422 0
2020-04-10 10:28:21 GMT 54.163296 38.393017 33,000 156 422 0
2020-04-10 10:28:17 GMT 54.169830 38.388191 33,000 156 422 0
2020-04-10 10:28:10 GMT 54.182056 38.379204 33,000 156 421 0
2020-04-10 10:28:07 GMT 54.187595 38.375164 33,000 156 421 0
2020-04-10 10:28:00 GMT 54.199677 38.366299 33,000 156 421 64
2020-04-10 10:27:57 GMT 54.205658 38.361835 33,000 156 421 64
2020-04-10 10:27:52 GMT 54.215668 38.354485 33,000 156 421 0
2020-04-10 10:27:47 GMT 54.226376 38.346565 33,000 156 421 -64
2020-04-10 10:27:43 GMT 54.231728 38.342609 33,000 156 421 0
2020-04-10 10:27:40 GMT 54.236012 38.339458 33,000 156 421 64
2020-04-10 10:27:35 GMT 54.244064 38.333481 33,000 156 422 0
2020-04-10 10:27:31 GMT 54.251862 38.327690 33,000 156 422 64
2020-04-10 10:27:27 GMT 54.258453 38.322823 33,000 156 422 -64
2020-04-10 10:27:24 GMT 54.263123 38.319370 33,000 156 422 -64
2020-04-10 10:27:21 GMT 54.270630 38.313801 33,000 156 422 -64
2020-04-10 10:27:18 GMT 54.275620 38.310032 33,000 156 422 0
2020-04-10 10:27:12 GMT 54.286560 38.301975 33,000 156 422 64
2020-04-10 10:27:09 GMT 54.291183 38.298500 33,000 156 422 0
2020-04-10 10:27:03 GMT 54.300392 38.291763 33,000 156 424 64
2020-04-10 10:26:59 GMT 54.309769 38.284767 33,000 156 421 64
2020-04-10 10:26:56 GMT 54.315125 38.280811 33,000 156 422 64
2020-04-10 10:26:53 GMT 54.319710 38.277367 33,000 156 422 0
2020-04-10 10:26:49 GMT 54.326138 38.272621 33,000 156 422 -64
2020-04-10 10:26:46 GMT 54.333118 38.267380 33,000 156 421 0
2020-04-10 10:26:43 GMT 54.337463 38.264168 33,000 156 422 0
2020-04-10 10:26:40 GMT 54.342133 38.260696 33,000 156 422 64
2020-04-10 10:26:37 GMT 54.348587 38.255928 33,000 156 422 0
2020-04-10 10:26:33 GMT 54.364590 38.244240 33,000 156 422 -64
2020-04-10 10:26:28 GMT 54.364590 38.244240 33,000 156 422 -64
2020-04-10 10:26:25 GMT 54.369873 38.240337 33,000 156 422 -64
2020-04-10 10:26:22 GMT 54.374828 38.236752 33,000 156 422 -64
2020-04-10 10:26:17 GMT 54.382698 38.231007 33,000 156 423 0
2020-04-10 10:26:14 GMT 54.389969 38.225636 33,000 156 422 0
2020-04-10 10:26:11 GMT 54.393822 38.222767 33,000 156 422 0
2020-04-10 10:26:08 GMT 54.401276 38.217316 33,000 156 422 -64
2020-04-10 10:26:05 GMT 54.407089 38.213028 33,000 156 422 -64
2020-04-10 10:26:01 GMT 54.412537 38.208916 33,000 156 422 0
2020-04-10 10:25:57 GMT 54.420044 38.203259 33,000 156 422 64
2020-04-10 10:25:54 GMT 54.424595 38.199879 33,000 156 422 64
2020-04-10 10:25:51 GMT 54.430832 38.195217 33,000 156 422 64
2020-04-10 10:25:47 GMT 54.437897 38.189930 33,000 156 422 64
2020-04-10 10:25:44 GMT 54.443436 38.185810 33,000 156 422 0
2020-04-10 10:25:41 GMT 54.449341 38.181370 33,000 156 422 0
2020-04-10 10:25:37 GMT 54.455933 38.176441 33,000 156 422 0
2020-04-10 10:25:34 GMT 54.461288 38.172401 33,000 156 423 -64
2020-04-10 10:25:30 GMT 54.470169 38.165672 33,000 156 424 -64
2020-04-10 10:25:27 GMT 54.474449 38.162426 33,000 156 424 0
2020-04-10 10:25:24 GMT 54.479805 38.158432 33,000 156 423 64
2020-04-10 10:25:19 GMT 54.488930 38.151524 33,000 156 424 0
2020-04-10 10:25:16 GMT 54.492699 38.148693 33,000 156 424 -128
2020-04-10 10:25:13 GMT 54.497818 38.144855 33,000 156 424 -128
2020-04-10 10:25:06 GMT 54.511642 38.134434 33,000 156 425 0
2020-04-10 10:25:03 GMT 54.516254 38.131046 33,000 156 425 0
2020-04-10 10:24:56 GMT 54.529266 38.121265 33,000 156 425 0
2020-04-10 10:24:53 GMT 54.534851 38.117065 33,000 156 425 64
2020-04-10 10:24:46 GMT 54.548656 38.106747 33,000 156 425 0
2020-04-10 10:24:42 GMT 54.564011 38.095173 33,000 156 425 -64
2020-04-10 10:24:37 GMT 54.564011 38.095173 33,000 156 426 -64
2020-04-10 10:24:34 GMT 54.568439 38.091846 33,000 156 426 0
2020-04-10 10:24:31 GMT 54.575043 38.086933 33,000 156 426 0
2020-04-10 10:24:28 GMT 54.579613 38.083443 33,000 156 426 0
2020-04-10 10:24:25 GMT 54.584564 38.079742 33,000 156 426 -64
2020-04-10 10:24:22 GMT 54.589901 38.075783 33,000 156 426 -64
2020-04-10 10:24:16 GMT 54.604332 38.064964 33,000 156 427 64
2020-04-10 10:24:12 GMT 54.608521 38.061886 33,000 156 427 64
2020-04-10 10:24:07 GMT 54.618530 38.054379 33,000 156 427 0
2020-04-10 10:24:03 GMT 54.626175 38.048725 33,000 156 427 -64
2020-04-10 10:23:58 GMT 54.637756 38.040081 33,000 156 428 0
2020-04-10 10:23:54 GMT 54.645950 38.034023 33,000 156 429 0
2020-04-10 10:23:44 GMT 54.660278 38.023357 33,000 156 429 -64
2020-04-10 10:23:41 GMT 54.663757 38.020775 33,000 156 429 -64
2020-04-10 10:23:34 GMT 54.678349 38.009781 33,000 156 428 64
2020-04-10 10:23:31 GMT 54.682800 38.006474 33,000 156 430 0
2020-04-10 10:23:24 GMT 54.696442 37.996136 33,000 156 429 0
2020-04-10 10:23:21 GMT 54.701157 37.992580 33,000 156 429 0
2020-04-10 10:23:13 GMT 54.718231 37.979736 33,000 156 430 -64
2020-04-10 10:23:10 GMT 54.727600 37.972664 33,000 156 431 -64
2020-04-10 10:23:06 GMT 54.727600 37.972664 33,000 156 431 -64
2020-04-10 10:23:01 GMT 54.738647 37.964306 33,000 156 430 0
2020-04-10 10:22:57 GMT 54.745991 37.958763 33,000 156 430 64
2020-04-10 10:22:54 GMT 54.750553 37.955269 33,000 156 430 64
2020-04-10 10:22:50 GMT 54.766800 37.943115 33,000 156 430 -128
2020-04-10 10:22:46 GMT 54.766800 37.943115 33,000 156 430 -128
2020-04-10 10:22:43 GMT 54.770508 37.940315 33,000 156 430 -64
2020-04-10 10:22:40 GMT 54.776001 37.936195 33,000 156 430 64
2020-04-10 10:22:33 GMT 54.789093 37.926258 33,000 156 430 64
2020-04-10 10:22:30 GMT 54.794174 37.922462 33,000 156 430 0
2020-04-10 10:22:26 GMT 54.803391 37.915482 33,000 156 430 0
2020-04-10 10:22:23 GMT 54.807392 37.912487 33,000 156 430 64
2020-04-10 10:22:20 GMT 54.813583 37.907825 33,000 156 430 64
2020-04-10 10:22:15 GMT 54.821457 37.901783 33,000 156 430 0
2020-04-10 10:22:11 GMT 54.828110 37.896755 33,000 156 429 0
2020-04-10 10:22:08 GMT 54.832535 37.893379 33,000 156 429 0
2020-04-10 10:22:02 GMT 54.844589 37.884190 33,000 156 429 0
2020-04-10 10:21:59 GMT 54.851151 37.879196 33,000 156 429 0
2020-04-10 10:21:52 GMT 54.864120 37.869308 33,000 156 429 0
2020-04-10 10:21:49 GMT 54.869202 37.865429 33,000 156 429 0
2020-04-10 10:21:45 GMT 54.878338 37.858471 33,000 156 429 -64
2020-04-10 10:21:41 GMT 54.883224 37.854725 33,000 156 429 0
2020-04-10 10:21:37 GMT 54.890945 37.848789 33,000 156 429 0
2020-04-10 10:21:34 GMT 54.897007 37.844154 33,000 156 429 0
2020-04-10 10:21:30 GMT 54.903442 37.839256 33,000 156 430 0
2020-04-10 10:21:27 GMT 54.911636 37.832954 33,000 156 430 0
2020-04-10 10:21:21 GMT 54.919830 37.826736 33,000 156 430 0
2020-04-10 10:21:18 GMT 54.925278 37.822536 33,000 156 430 0
2020-04-10 10:21:13 GMT 54.933548 37.816189 33,000 156 432 0
2020-04-10 10:21:10 GMT 54.938854 37.812111 33,000 156 432 -64
2020-04-10 10:21:07 GMT 54.944229 37.807995 33,000 156 432 -64
2020-04-10 10:21:03 GMT 54.953426 37.800877 33,000 156 432 -64
2020-04-10 10:21:00 GMT 54.957058 37.798130 33,000 156 432 -64
2020-04-10 10:20:57 GMT 54.962551 37.793884 33,000 156 432 -64
2020-04-10 10:20:53 GMT 54.970978 37.787476 33,000 156 432 -64
2020-04-10 10:20:49 GMT 54.976425 37.783230 33,025 156 432 -64
2020-04-10 10:20:46 GMT 54.982101 37.778904 33,000 156 432 -64
2020-04-10 10:20:42 GMT 54.997280 37.767334 33,025 156 432 -64
2020-04-10 10:20:39 GMT 55.003006 37.762836 33,000 156 431 320
2020-04-10 10:20:36 GMT 55.003006 37.762836 33,000 156 431 704
2020-04-10 10:20:33 GMT 55.007473 37.759426 32,925 156 432 768
2020-04-10 10:20:30 GMT 55.017902 37.751518 32,900 156 432 768
2020-04-10 10:20:23 GMT 55.026215 37.745148 32,850 156 432 768
2020-04-10 10:20:18 GMT 55.034149 37.739120 32,750 156 431 768
2020-04-10 10:20:15 GMT 55.041000 37.733917 32,725 156 430 832
2020-04-10 10:20:12 GMT 55.044434 37.731251 32,700 156 430 832
2020-04-10 10:20:09 GMT 55.050613 37.726566 32,650 156 430 1024
2020-04-10 10:20:06 GMT 55.055050 37.723141 32,525 156 430 1088
2020-04-10 10:20:03 GMT 55.063431 37.716728 32,500 156 429 1792
2020-04-10 10:19:57 GMT 55.072037 37.710167 32,450 156 429 1152
2020-04-10 10:19:54 GMT 55.078217 37.705402 32,400 156 429 1088
2020-04-10 10:19:51 GMT 55.083729 37.701164 32,350 156 429 1152
2020-04-10 10:19:48 GMT 55.089294 37.696918 32,275 156 429 1280
2020-04-10 10:19:45 GMT 55.094994 37.692593 32,175 156 429 1728
2020-04-10 10:19:42 GMT 55.100922 37.688034 32,075 156 429 1856
2020-04-10 10:19:39 GMT 55.105698 37.684353 32,025 156 429 1856
2020-04-10 10:19:36 GMT 55.110264 37.680859 31,975 156 429 1856
2020-04-10 10:19:32 GMT 55.117851 37.675034 31,800 156 429 1792
2020-04-10 10:19:27 GMT 55.128799 37.666546 31,700 156 428 1792
2020-04-10 10:19:24 GMT 55.132515 37.663712 31,550 156 429 1920
2020-04-10 10:19:20 GMT 55.141590 37.656723 31,400 156 429 1792
2020-04-10 10:19:16 GMT 55.146927 37.652569 31,325 156 428 1664
2020-04-10 10:19:12 GMT 55.156071 37.645485 31,200 156 428 1792
2020-04-10 10:19:09 GMT 55.159698 37.642738 31,075 155 429 2304
2020-04-10 10:19:06 GMT 55.166107 37.637707 31,000 155 429 2176
2020-04-10 10:19:01 GMT 55.174072 37.631565 30,850 155 429 2240
2020-04-10 10:18:58 GMT 55.180023 37.626881 30,675 155 430 2368
2020-04-10 10:18:55 GMT 55.184921 37.623085 30,600 155 430 2432
2020-04-10 10:18:52 GMT 55.188610 37.620186 30,525 155 430 2432
2020-04-10 10:18:49 GMT 55.195816 37.614521 30,350 155 431 2432
2020-04-10 10:18:46 GMT 55.200619 37.610779 30,200 155 431 2368
2020-04-10 10:18:43 GMT 55.207809 37.605152 30,100 155 431 2432
2020-04-10 10:18:40 GMT 55.212631 37.601376 29,975 155 433 2496
2020-04-10 10:18:36 GMT 55.218079 37.597046 29,825 155 433 2496
2020-04-10 10:18:33 GMT 55.224270 37.592136 29,725 155 434 2432
2020-04-10 10:18:29 GMT 55.234138 37.584312 29,600 155 434 2432
2020-04-10 10:18:25 GMT 55.240677 37.579384 29,350 157 434 2496
2020-04-10 10:18:20 GMT 55.248276 37.574051 29,225 158 434 2432
2020-04-10 10:18:17 GMT 55.255188 37.569447 29,025 161 431 1792
2020-04-10 10:18:13 GMT 55.263371 37.564587 28,925 162 430 1728
2020-04-10 10:18:10 GMT 55.268005 37.561932 28,800 163 428 1856
2020-04-10 10:18:06 GMT 55.275894 37.558010 28,725 165 427 1792
2020-04-10 10:18:03 GMT 55.282597 37.555016 28,450 166 425 1664
2020-04-10 10:18:00 GMT 55.287094 37.553127 28,550 166 424 1728
2020-04-10 10:17:55 GMT 55.295837 37.549492 28,250 166 424 1856
2020-04-10 10:17:52 GMT 55.302521 37.546825 28,325 166 423 1792
2020-04-10 10:17:49 GMT 55.307831 37.544563 28,225 163 424 1664
2020-04-10 10:17:44 GMT 55.317993 37.539474 28,075 161 424 1728
2020-04-10 10:17:39 GMT 55.326508 37.534225 27,950 157 426 1792
2020-04-10 10:17:35 GMT 55.333153 37.529465 27,850 154 427 1664
2020-04-10 10:17:32 GMT 55.340973 37.523239 27,725 152 427 1728
2020-04-10 10:17:28 GMT 55.346981 37.517727 27,625 149 428 1856
2020-04-10 10:17:25 GMT 55.351635 37.513065 27,550 146 429 1984
2020-04-10 10:17:21 GMT 55.363541 37.499649 27,300 143 431 2112
2020-04-10 10:17:18 GMT 55.363541 37.499649 27,300 143 431 2112
2020-04-10 10:17:15 GMT 55.368210 37.493671 27,200 141 432 2048
2020-04-10 10:17:12 GMT 55.371468 37.489262 27,125 139 433 2048
2020-04-10 10:17:09 GMT 55.376961 37.481106 27,000 136 434 1920
2020-04-10 10:17:06 GMT 55.380432 37.475494 26,850 135 434 2112
2020-04-10 10:17:03 GMT 55.386337 37.465397 26,775 135 434 2112
2020-04-10 10:17:00 GMT 55.389175 37.460472 26,600 135 434 2048
2020-04-10 10:16:57 GMT 55.396271 37.448029 26,550 135 433 2048
2020-04-10 10:16:54 GMT 55.398376 37.444233 26,500 135 432 2048
2020-04-10 10:16:51 GMT 55.403820 37.434750 26,425 135 432 2112
2020-04-10 10:16:48 GMT 55.406570 37.429855 26,150 135 431 2240
2020-04-10 10:16:44 GMT 55.413208 37.418221 26,100 134 430 2112
2020-04-10 10:16:40 GMT 55.418655 37.408607 25,975 134 430 2112
2020-04-10 10:16:37 GMT 55.421631 37.403358 25,900 134 429 2176
2020-04-10 10:16:34 GMT 55.426666 37.394470 25,775 134 429 2240
2020-04-10 10:16:31 GMT 55.437897 37.374657 25,600 134 429 2240
2020-04-10 10:16:27 GMT 55.437897 37.374657 25,475 134 427 2240
2020-04-10 10:16:24 GMT 55.441250 37.368748 25,375 134 427 2112
2020-04-10 10:16:20 GMT 55.447533 37.357635 25,225 134 426 2112
2020-04-10 10:16:17 GMT 55.451752 37.350185 25,100 134 426 2240
2020-04-10 10:16:13 GMT 55.455368 37.343777 24,925 134 421 2368
2020-04-10 10:16:09 GMT 55.465897 37.325218 24,675 134 424 2432
2020-04-10 10:16:06 GMT 55.465897 37.325218 24,700 134 424 2432
2020-04-10 10:16:03 GMT 55.469273 37.319183 24,600 134 423 2432
2020-04-10 10:15:59 GMT 55.475464 37.308197 24,425 134 422 2368
2020-04-10 10:15:55 GMT 55.480446 37.299442 24,275 134 421 2368
2020-04-10 10:15:52 GMT 55.485661 37.290173 24,125 134 421 2496
2020-04-10 10:15:49 GMT 55.488918 37.284336 24,025 134 421 2496
2020-04-10 10:15:45 GMT 55.494690 37.274120 23,925 134 420 2496
2020-04-10 10:15:42 GMT 55.498032 37.268204 23,750 134 420 2496
2020-04-10 10:15:39 GMT 55.503815 37.257900 23,575 134 419 2432
2020-04-10 10:15:36 GMT 55.507324 37.251724 23,425 134 417 2432
2020-04-10 10:15:33 GMT 55.511261 37.244736 23,100 134 417 2496
2020-04-10 10:15:30 GMT 55.514988 37.238071 23,250 134 417 2560
2020-04-10 10:15:26 GMT 55.519775 37.229588 23,100 134 417 2496
2020-04-10 10:15:23 GMT 55.529114 37.212940 22,875 134 415 2368
2020-04-10 10:15:20 GMT 55.529114 37.212940 22,825 134 414 2368
2020-04-10 10:15:15 GMT 55.536255 37.200291 22,600 134 412 2496
2020-04-10 10:15:12 GMT 55.538956 37.195461 22,525 134 412 2496
2020-04-10 10:15:09 GMT 55.542919 37.188461 22,400 134 411 2560
2020-04-10 10:15:05 GMT 55.549530 37.176651 22,275 134 411 2624
2020-04-10 10:15:02 GMT 55.552277 37.171810 22,125 134 410 2688
2020-04-10 10:14:59 GMT 55.558228 37.161255 21,900 134 410 2816
2020-04-10 10:14:56 GMT 55.560284 37.157650 21,775 134 409 2880
2020-04-10 10:14:53 GMT 55.564362 37.150352 21,650 134 408 2816
2020-04-10 10:14:49 GMT 55.569592 37.141087 21,475 134 408 2688
2020-04-10 10:14:45 GMT 55.574249 37.132847 21,325 134 407 2688
2020-04-10 10:14:42 GMT 55.583370 37.116623 21,000 134 405 2944
2020-04-10 10:14:39 GMT 55.583370 37.116623 21,000 134 405 2944
2020-04-10 10:14:36 GMT 55.588120 37.108212 20,825 135 404 2752
2020-04-10 10:14:31 GMT 55.593288 37.099113 20,650 135 403 2688
2020-04-10 10:14:28 GMT 55.596733 37.093018 20,550 135 403 2688
2020-04-10 10:14:25 GMT 55.600780 37.085812 20,400 134 402 2880
2020-04-10 10:14:22 GMT 55.604782 37.078773 20,275 134 401 2880
2020-04-10 10:14:18 GMT 55.610699 37.068130 20,050 135 399 2624
2020-04-10 10:14:15 GMT 55.616238 37.058601 19,875 137 397 2496
2020-04-10 10:14:12 GMT 55.623451 37.047188 19,675 139 394 2560
2020-04-10 10:14:09 GMT 55.623451 37.047188 19,650 140 393 2752
2020-04-10 10:14:05 GMT 55.628342 37.039890 19,475 142 391 3136
2020-04-10 10:14:01 GMT 55.634995 37.030834 19,225 144 389 3200
2020-04-10 10:13:58 GMT 55.637978 37.027016 19,100 145 388 3136
2020-04-10 10:13:55 GMT 55.642868 37.020931 18,975 146 387 3008
2020-04-10 10:13:52 GMT 55.648033 37.014915 18,775 148 385 2880
2020-04-10 10:13:48 GMT 55.653717 37.008694 18,575 150 383 3008
2020-04-10 10:13:45 GMT 55.658691 37.003670 18,425 151 382 3200
2020-04-10 10:13:40 GMT 55.665539 36.997147 18,175 153 381 3264
2020-04-10 10:13:37 GMT 55.669830 36.993298 18,025 154 380 3264
2020-04-10 10:13:34 GMT 55.675175 36.988819 17,725 158 377 3456
2020-04-10 10:13:31 GMT 55.681084 36.984272 17,600 158 377 3392
2020-04-10 10:13:28 GMT 55.686066 36.980667 17,475 161 375 3136
2020-04-10 10:13:25 GMT 55.689377 36.978317 17,275 160 375 3328
2020-04-10 10:13:22 GMT 55.694351 36.975086 17,175 160 376 3264
2020-04-10 10:13:18 GMT 55.702080 36.970451 16,950 162 373 2944
2020-04-10 10:13:14 GMT 55.708237 36.966995 16,750 163 371 2944
2020-04-10 10:13:11 GMT 55.713066 36.964443 16,625 164 370 2880
2020-04-10 10:13:07 GMT 55.719303 36.961353 16,425 165 368 3072
2020-04-10 10:13:03 GMT 55.730198 36.956635 16,150 167 366 3392
2020-04-10 10:13:00 GMT 55.730198 36.956635 16,025 168 365 3456
2020-04-10 10:12:57 GMT 55.736710 36.954178 15,825 168 364 3584
2020-04-10 10:12:53 GMT 55.742477 36.952015 15,625 168 364 3776
2020-04-10 10:12:48 GMT 55.749004 36.949680 15,375 168 363 3712
2020-04-10 10:12:45 GMT 55.754013 36.947769 15,175 167 364 3456
2020-04-10 10:12:42 GMT 55.759094 36.945854 15,025 167 363 3072
2020-04-10 10:12:39 GMT 55.765503 36.943443 14,850 167 359 2304
2020-04-10 10:12:36 GMT 55.771072 36.941273 14,725 167 355 2304
2020-04-10 10:12:33 GMT 55.774933 36.939728 14,650 167 355 2304
2020-04-10 10:12:28 GMT 55.782394 36.936783 14,450 167 350 2560
2020-04-10 10:12:25 GMT 55.789490 36.933872 14,225 167 348 2816
2020-04-10 10:12:22 GMT 55.791599 36.933029 14,175 167 347 2816
2020-04-10 10:12:18 GMT 55.798306 36.930370 13,975 167 344 2560
2020-04-10 10:12:14 GMT 55.806824 36.927025 13,725 167 339 2304
2020-04-10 10:12:11 GMT 55.809357 36.926048 13,700 167 338 2304
2020-04-10 10:12:07 GMT 55.814457 36.924107 13,550 168 334 2304
2020-04-10 10:12:04 GMT 55.820435 36.921970 13,400 169 331 2432
2020-04-10 10:12:01 GMT 55.825024 36.920502 13,275 170 328 2368
2020-04-10 10:11:56 GMT 55.832428 36.918388 13,100 174 323 2112
2020-04-10 10:11:52 GMT 55.838013 36.917412 12,900 181 318 2496
2020-04-10 10:11:48 GMT 55.843597 36.917412 12,775 185 315 2816
2020-04-10 10:11:45 GMT 55.847855 36.917973 12,650 188 313 3008
2020-04-10 10:11:41 GMT 55.855331 36.920155 12,400 197 311 3136
2020-04-10 10:11:38 GMT 55.858776 36.921871 12,225 200 309 3136
2020-04-10 10:11:35 GMT 55.861816 36.923717 12,150 205 307 3072
2020-04-10 10:11:30 GMT 55.868458 36.929085 11,975 211 303 2816
2020-04-10 10:11:27 GMT 55.871998 36.932945 11,750 215 300 2880
2020-04-10 10:11:24 GMT 55.874771 36.936367 11,625 220 297 3072
2020-04-10 10:11:20 GMT 55.879723 36.943848 11,375 224 294 3136
2020-04-10 10:11:15 GMT 55.884613 36.952267 11,175 225 289 2176
2020-04-10 10:11:10 GMT 55.889053 36.960171 11,050 225 286 2304
2020-04-10 10:11:07 GMT 55.892570 36.966331 10,825 225 284 2752
2020-04-10 10:11:04 GMT 55.894455 36.969742 10,750 226 283 2816
2020-04-10 10:11:00 GMT 55.897785 36.975861 10,300 234 277 3136
2020-04-10 10:10:57 GMT 55.900589 36.981480 10,350 234 277 3136
2020-04-10 10:10:54 GMT 55.903324 36.987705 10,350 234 277 3136
2020-04-10 10:10:50 GMT 55.905888 36.994228 9,950 247 271 3520
2020-04-10 10:10:47 GMT 55.908234 37.001038 9,775 243 272 3328
2020-04-10 10:10:44 GMT 55.910065 37.006947 9,675 246 272 3392
2020-04-10 10:10:40 GMT 55.912357 37.016029 9,475 248 272 3520
2020-04-10 10:10:36 GMT 55.913940 37.023327 9,225 254 270 3136
2020-04-10 10:10:33 GMT 55.914871 37.028645 9,100 255 269 2752
2020-04-10 10:10:30 GMT 55.916176 37.036972 8,975 256 267 2560
2020-04-10 10:10:24 GMT 55.918129 37.050533 8,675 256 263 2496
2020-04-10 10:10:19 GMT 55.919266 37.058384 8,525 256 260 2432
2020-04-10 10:10:16 GMT 55.920319 37.065624 8,375 256 258 2752
2020-04-10 10:10:13 GMT 55.921108 37.071049 7,950 256 255 2880
2020-04-10 10:10:10 GMT 55.922413 37.080059 8,025 256 255 2880
2020-04-10 10:10:06 GMT 55.923157 37.085518 7,825 256 253 2752
2020-04-10 10:10:02 GMT 55.924320 37.093704 7,625 256 248 3136
2020-04-10 10:09:59 GMT 55.925537 37.102077 7,550 256 248 2560
2020-04-10 10:09:56 GMT 55.926136 37.106152 7,450 256 248 2880
2020-04-10 10:09:53 GMT 55.927048 37.112400 7,275 256 248 3456
2020-04-10 10:09:48 GMT 55.928417 37.122204 7,000 257 249 3264
2020-04-10 10:09:43 GMT 55.929886 37.132626 6,725 257 250 2880
2020-04-10 10:09:37 GMT 55.931351 37.143314 6,475 257 240 1728
2020-04-10 10:09:32 GMT 55.932724 37.153515 6,225 257 247 2880
2020-04-10 10:09:28 GMT 55.933910 37.162113 6,025 257 245 2496
2020-04-10 10:09:22 GMT 55.935379 37.172741 5,850 256 239 1728
2020-04-10 10:09:17 GMT 55.936615 37.181564 5,200 255 180 704
2020-04-10 10:09:12 GMT 55.938148 37.192154 5,525 256 230 2240
2020-04-10 10:09:09 GMT 55.939133 37.198792 5,350 256 221 0
2020-04-10 10:09:04 GMT 55.940380 37.207088 5,225 255 225 2240
2020-04-10 10:09:01 GMT 55.940987 37.210865 4,700 256 223 2240
2020-04-10 10:08:57 GMT 55.942108 37.218681 4,975 256 221 2368
2020-04-10 10:08:53 GMT 55.943127 37.225628 4,725 256 217 1792
2020-04-10 10:08:49 GMT 55.944290 37.233269 4,675 256 211 1280
2020-04-10 10:08:46 GMT 55.944901 37.237576 4,650 256 208 1024
2020-04-10 10:08:43 GMT 55.945724 37.243320 4,575 256 202 1024
2020-04-10 10:08:38 GMT 55.946960 37.251560 4,450 255 196 1600
2020-04-10 10:08:34 GMT 55.947830 37.257557 4,325 255 189 1088
2020-04-10 10:08:30 GMT 55.948700 37.262962 4,325 255 189 1088
2020-04-10 10:08:27 GMT 55.949387 37.267456 4,275 255 180 704
2020-04-10 10:08:24 GMT 55.950165 37.272449 4,100 255 170 1536
2020-04-10 10:08:20 GMT 55.950943 37.277359 4,175 255 171 1408
2020-04-10 10:08:16 GMT 55.951996 37.283852 4,075 254 169 2112
2020-04-10 10:08:13 GMT 55.952579 37.287338 3,900 255 170 2560
2020-04-10 10:08:07 GMT 55.953827 37.295506 3,675 255 170 2176
2020-04-10 10:08:04 GMT 55.954697 37.300915 3,525 254 169 2304
2020-04-10 10:07:57 GMT 55.956024 37.309155 3,300 255 169 1920
2020-04-10 10:07:51 GMT 55.957233 37.317295 3,125 258 165 2496
2020-04-10 10:07:47 GMT 55.957901 37.322556 2,975 258 164 2624
2020-04-10 10:07:43 GMT 55.958588 37.327881 2,725 257 164 2112
2020-04-10 10:07:40 GMT 55.959091 37.331959 2,725 257 163 1600
2020-04-10 10:07:37 GMT 55.959778 37.336704 2,625 256 162 1408
2020-04-10 10:07:29 GMT 55.961098 37.345619 2,400 255 152 1600
2020-04-10 10:07:26 GMT 55.961700 37.349270 2,375 255 158 1664
2020-04-10 10:07:20 GMT 55.963074 37.358093 2,175 255 152 1600
2020-04-10 10:07:16 GMT 55.963749 37.362530 2,075 257 158 1920
2020-04-10 10:07:12 GMT 55.964542 37.368362 1,875 257 161 2496
2020-04-10 10:07:06 GMT 55.965473 37.375145 1,675 257 159 2048
2020-04-10 10:07:01 GMT 55.966358 37.381580 1,475 256 159 2176
2020-04-10 10:06:55 GMT 55.967377 37.388638 1,300 256 155 1792
2020-04-10 10:06:38 GMT 55.970592 37.409737 800 255 151 1856
2020-04-10 10:05:35 GMT 55.975365 37.441406 0 239 10
2020-04-10 10:05:26 GMT 55.975685 37.441906 0 180 11
2020-04-10 10:04:48 GMT 55.978065 37.440849 0 163 14
2020-04-10 10:04:13 GMT 55.980045 37.439926 0 163 10
2020-04-10 10:02:51 GMT 55.979633 37.432438 0 73 14
2020-04-10 10:02:44 GMT 55.979519 37.431625 0 73 13
2020-04-10 10:02:18 GMT 55.979137 37.429153 0 75 10
2020-04-10 10:02:13 GMT 55.979088 37.428745 0 75 9
2020-04-10 10:02:03 GMT 55.978981 37.428070 0 70 8
2020-04-10 10:01:51 GMT 55.978775 37.427464 0 22 9
2020-04-10 10:01:22 GMT 55.977585 37.427132 0 70 9
2020-04-10 10:01:11 GMT 55.977493 37.426529 0 73 8
2020-04-10 10:00:59 GMT 55.977345 37.425529 0 73 12
2020-04-10 10:00:48 GMT 55.977203 37.424625 0 73 12
2020-04-10 10:00:42 GMT 55.977100 37.423920 0 73 15
2020-04-10 10:00:00 GMT 55.976330 37.418789 0 73 14
2020-04-10 09:59:31 GMT 55.976154 37.416145 0 149 10
2020-04-10 09:59:26 GMT 55.976326 37.415981 0 163 9
2020-04-10 09:59:14 GMT 55.976761 37.415787 0 165 8
2020-04-10 09:59:10 GMT 55.976936 37.415699 0 165 10
2020-04-10 09:58:59 GMT 55.977425 37.415462 0 165 12
2020-04-10 09:58:49 GMT 55.977970 37.415207 0 165 13
2020-04-10 09:58:38 GMT 55.978519 37.414948 0 165 11
2020-04-10 09:58:28 GMT 55.979004 37.414711 0 163 9
2020-04-10 09:58:16 GMT 55.979382 37.414543 0 163 6
2020-04-10 09:54:28 GMT 55.979591 37.414413 0 165 2
2020-04-10 09:54:20 GMT 55.979519 37.414455 0 165 2
2020-04-10 09:54:13 GMT 55.979462 37.414455 0 168 2
2020-04-10 09:54:02 GMT 55.979382 37.414482 0 168 1
2020-04-10 09:53:50 GMT 55.979336 37.414585 0 143 2
2020-04-10 09:53:40 GMT 55.979313 37.414711 0 120 2
2020-04-10 09:53:32 GMT 55.979321 37.414822 0 104 2
2020-04-10 09:53:18 GMT 55.979336 37.415001 0 84 2
2020-04-10 09:53:10 GMT 55.979359 37.415100 0 81 2

Making use of Plane Finder data

You are free to use the raw flight data, aircraft information and images provided in this report for your own purposes provided the data is correctly attributed to Plane Finder. We ask that you please credit Plane Finder and link to planefinder.net in close proximity to the content.

Optionally one of the following logos (no smaller then 150x24px) can be used and must link to planefinder.net

Embedding the Plane Finder map

You are welcome to embed the Plane Finder playback map on your website to offer visitors a more interactive experience. We suggest using the following HTML code:

<iframe src="//planefinder.net/data/report/SU1310-VP-BMB-7700-squawk-2020-04-10/map" width="800" height="600" seamless="seamless"></iframe>

Where our data comes from

Plane Finder has a global network of data feeds and antenna radars that receive data broadcast directly from aircraft. The primary technologies used are ADS-B and MLAT. We also show feeds from the FAA and a FLARM glider feed.

Click here to find out more about the Plane Finder network.

How we collect our data